<?xml version="1.0" encoding="UTF-8" standalone="no" ?>
<gpx xmlns="http://www.topografix.com/GPX/1/1" xmlns:xsi="http://www.w3.org/2001/XMLSchema-instance" xsi:schemaLocation="http://www.topografix.com/GPX/1/1 http://www.topografix.com/GPX/1/1/gpx.xsd" version="1.1" creator="VisuGPX - https://www.visugpx.com">
  <metadata>
    <name>Grande Traversée des Alpes J2 partie 2</name>
    <desc><![CDATA[Grande Traversée des Alpes jour 2]]></desc>
  </metadata>
  <trk>
    <name><![CDATA[3/7/2016 15:43]]></name>
    <desc><![CDATA[]]></desc>
    <trkseg>
      <trkpt lat="46.25451" lon="6.79089">
        <ele>1733</ele>
        <time>2016-07-03T13:43:21.090Z</time>
      </trkpt>
      <trkpt lat="46.25446" lon="6.79088">
        <ele>1721</ele>
        <time>2016-07-03T13:44:13.000Z</time>
      </trkpt>
      <trkpt lat="46.25442" lon="6.79088">
        <ele>1726</ele>
        <time>2016-07-03T13:44:14.000Z</time>
      </trkpt>
      <trkpt lat="46.25439" lon="6.79092">
        <ele>1737</ele>
        <time>2016-07-03T13:45:36.000Z</time>
      </trkpt>
      <trkpt lat="46.25439" lon="6.79092">
        <ele>1737</ele>
        <time>2016-07-03T13:45:37.000Z</time>
      </trkpt>
      <trkpt lat="46.25432" lon="6.79099">
        <ele>1743</ele>
        <time>2016-07-03T13:51:23.000Z</time>
      </trkpt>
      <trkpt lat="46.25432" lon="6.791">
        <ele>1743</ele>
        <time>2016-07-03T13:51:24.000Z</time>
      </trkpt>
      <trkpt lat="46.25426" lon="6.79108">
        <ele>1739</ele>
        <time>2016-07-03T14:07:05.000Z</time>
      </trkpt>
      <trkpt lat="46.25426" lon="6.79109">
        <ele>1739</ele>
        <time>2016-07-03T14:07:06.000Z</time>
      </trkpt>
      <trkpt lat="46.25423" lon="6.79121">
        <ele>1741</ele>
        <time>2016-07-03T14:07:16.000Z</time>
      </trkpt>
      <trkpt lat="46.25424" lon="6.79122">
        <ele>1741</ele>
        <time>2016-07-03T14:07:17.000Z</time>
      </trkpt>
      <trkpt lat="46.25419" lon="6.79132">
        <ele>1739</ele>
        <time>2016-07-03T14:07:28.000Z</time>
      </trkpt>
      <trkpt lat="46.25418" lon="6.79133">
        <ele>1740</ele>
        <time>2016-07-03T14:07:29.000Z</time>
      </trkpt>
      <trkpt lat="46.25414" lon="6.79143">
        <ele>1743</ele>
        <time>2016-07-03T14:07:44.000Z</time>
      </trkpt>
      <trkpt lat="46.25413" lon="6.79143">
        <ele>1742</ele>
        <time>2016-07-03T14:07:45.000Z</time>
      </trkpt>
      <trkpt lat="46.25405" lon="6.79149">
        <ele>1741</ele>
        <time>2016-07-03T14:07:52.000Z</time>
      </trkpt>
      <trkpt lat="46.25405" lon="6.7915">
        <ele>1741</ele>
        <time>2016-07-03T14:07:53.000Z</time>
      </trkpt>
      <trkpt lat="46.254" lon="6.79161">
        <ele>1744</ele>
        <time>2016-07-03T14:08:01.000Z</time>
      </trkpt>
      <trkpt lat="46.25399" lon="6.79161">
        <ele>1743</ele>
        <time>2016-07-03T14:08:02.000Z</time>
      </trkpt>
      <trkpt lat="46.25391" lon="6.79162">
        <ele>1744</ele>
        <time>2016-07-03T14:08:09.000Z</time>
      </trkpt>
      <trkpt lat="46.2539" lon="6.79163">
        <ele>1744</ele>
        <time>2016-07-03T14:08:10.000Z</time>
      </trkpt>
      <trkpt lat="46.25381" lon="6.79165">
        <ele>1742</ele>
        <time>2016-07-03T14:08:18.000Z</time>
      </trkpt>
      <trkpt lat="46.2538" lon="6.79165">
        <ele>1741</ele>
        <time>2016-07-03T14:08:19.000Z</time>
      </trkpt>
      <trkpt lat="46.25372" lon="6.79168">
        <ele>1744</ele>
        <time>2016-07-03T14:08:25.000Z</time>
      </trkpt>
      <trkpt lat="46.25371" lon="6.79168">
        <ele>1746</ele>
        <time>2016-07-03T14:08:26.000Z</time>
      </trkpt>
      <trkpt lat="46.25363" lon="6.79172">
        <ele>1746</ele>
        <time>2016-07-03T14:08:32.000Z</time>
      </trkpt>
      <trkpt lat="46.25362" lon="6.79173">
        <ele>1746</ele>
        <time>2016-07-03T14:08:33.000Z</time>
      </trkpt>
      <trkpt lat="46.25354" lon="6.79179">
        <ele>1749</ele>
        <time>2016-07-03T14:08:41.000Z</time>
      </trkpt>
      <trkpt lat="46.25352" lon="6.79179">
        <ele>1749</ele>
        <time>2016-07-03T14:08:42.000Z</time>
      </trkpt>
      <trkpt lat="46.25346" lon="6.7918">
        <ele>1750</ele>
        <time>2016-07-03T14:08:50.000Z</time>
      </trkpt>
      <trkpt lat="46.25347" lon="6.79181">
        <ele>1750</ele>
        <time>2016-07-03T14:08:51.000Z</time>
      </trkpt>
      <trkpt lat="46.25347" lon="6.79181">
        <ele>1750</ele>
        <time>2016-07-03T14:08:57.000Z</time>
      </trkpt>
      <trkpt lat="46.25347" lon="6.79181">
        <ele>1750</ele>
        <time>2016-07-03T14:08:58.000Z</time>
      </trkpt>
      <trkpt lat="46.25339" lon="6.79182">
        <ele>1751</ele>
        <time>2016-07-03T14:09:05.000Z</time>
      </trkpt>
      <trkpt lat="46.25338" lon="6.79182">
        <ele>1751</ele>
        <time>2016-07-03T14:09:06.000Z</time>
      </trkpt>
      <trkpt lat="46.25329" lon="6.79178">
        <ele>1755</ele>
        <time>2016-07-03T14:09:13.000Z</time>
      </trkpt>
      <trkpt lat="46.25328" lon="6.79176">
        <ele>1755</ele>
        <time>2016-07-03T14:09:14.000Z</time>
      </trkpt>
      <trkpt lat="46.2532" lon="6.79181">
        <ele>1761</ele>
        <time>2016-07-03T14:09:57.000Z</time>
      </trkpt>
      <trkpt lat="46.25319" lon="6.7918">
        <ele>1761</ele>
        <time>2016-07-03T14:09:58.000Z</time>
      </trkpt>
      <trkpt lat="46.25312" lon="6.79173">
        <ele>1759</ele>
        <time>2016-07-03T14:10:07.000Z</time>
      </trkpt>
      <trkpt lat="46.25311" lon="6.79173">
        <ele>1759</ele>
        <time>2016-07-03T14:10:08.000Z</time>
      </trkpt>
      <trkpt lat="46.25303" lon="6.79169">
        <ele>1759</ele>
        <time>2016-07-03T14:10:16.000Z</time>
      </trkpt>
      <trkpt lat="46.25302" lon="6.79169">
        <ele>1760</ele>
        <time>2016-07-03T14:10:17.000Z</time>
      </trkpt>
      <trkpt lat="46.25295" lon="6.79163">
        <ele>1759</ele>
        <time>2016-07-03T14:10:30.000Z</time>
      </trkpt>
      <trkpt lat="46.25293" lon="6.79162">
        <ele>1757</ele>
        <time>2016-07-03T14:10:31.000Z</time>
      </trkpt>
      <trkpt lat="46.25284" lon="6.79161">
        <ele>1755</ele>
        <time>2016-07-03T14:10:43.000Z</time>
      </trkpt>
      <trkpt lat="46.25284" lon="6.79161">
        <ele>1754</ele>
        <time>2016-07-03T14:10:44.000Z</time>
      </trkpt>
      <trkpt lat="46.25276" lon="6.79158">
        <ele>1756</ele>
        <time>2016-07-03T14:10:54.000Z</time>
      </trkpt>
      <trkpt lat="46.25274" lon="6.79158">
        <ele>1757</ele>
        <time>2016-07-03T14:10:55.000Z</time>
      </trkpt>
      <trkpt lat="46.25267" lon="6.79166">
        <ele>1759</ele>
        <time>2016-07-03T14:11:14.000Z</time>
      </trkpt>
      <trkpt lat="46.25266" lon="6.79165">
        <ele>1759</ele>
        <time>2016-07-03T14:11:15.000Z</time>
      </trkpt>
      <trkpt lat="46.25257" lon="6.79167">
        <ele>1758</ele>
        <time>2016-07-03T14:11:26.000Z</time>
      </trkpt>
      <trkpt lat="46.25256" lon="6.79165">
        <ele>1759</ele>
        <time>2016-07-03T14:11:27.000Z</time>
      </trkpt>
      <trkpt lat="46.2525" lon="6.7916">
        <ele>1763</ele>
        <time>2016-07-03T14:11:33.000Z</time>
      </trkpt>
      <trkpt lat="46.25249" lon="6.79158">
        <ele>1764</ele>
        <time>2016-07-03T14:11:34.000Z</time>
      </trkpt>
      <trkpt lat="46.2524" lon="6.79155">
        <ele>1761</ele>
        <time>2016-07-03T14:11:49.000Z</time>
      </trkpt>
      <trkpt lat="46.25239" lon="6.79154">
        <ele>1762</ele>
        <time>2016-07-03T14:11:50.000Z</time>
      </trkpt>
      <trkpt lat="46.25232" lon="6.79146">
        <ele>1766</ele>
        <time>2016-07-03T14:11:58.000Z</time>
      </trkpt>
      <trkpt lat="46.25231" lon="6.79146">
        <ele>1766</ele>
        <time>2016-07-03T14:11:59.000Z</time>
      </trkpt>
      <trkpt lat="46.25222" lon="6.79146">
        <ele>1763</ele>
        <time>2016-07-03T14:12:13.000Z</time>
      </trkpt>
      <trkpt lat="46.25221" lon="6.79146">
        <ele>1764</ele>
        <time>2016-07-03T14:12:14.000Z</time>
      </trkpt>
      <trkpt lat="46.25214" lon="6.79139">
        <ele>1769</ele>
        <time>2016-07-03T14:12:21.000Z</time>
      </trkpt>
      <trkpt lat="46.25213" lon="6.7914">
        <ele>1769</ele>
        <time>2016-07-03T14:12:22.000Z</time>
      </trkpt>
      <trkpt lat="46.25205" lon="6.79139">
        <ele>1772</ele>
        <time>2016-07-03T14:12:32.000Z</time>
      </trkpt>
      <trkpt lat="46.25204" lon="6.79139">
        <ele>1772</ele>
        <time>2016-07-03T14:12:33.000Z</time>
      </trkpt>
      <trkpt lat="46.25196" lon="6.79134">
        <ele>1776</ele>
        <time>2016-07-03T14:12:42.000Z</time>
      </trkpt>
      <trkpt lat="46.25195" lon="6.79134">
        <ele>1776</ele>
        <time>2016-07-03T14:12:43.000Z</time>
      </trkpt>
      <trkpt lat="46.25187" lon="6.79137">
        <ele>1774</ele>
        <time>2016-07-03T14:12:58.000Z</time>
      </trkpt>
      <trkpt lat="46.25186" lon="6.79136">
        <ele>1775</ele>
        <time>2016-07-03T14:12:59.000Z</time>
      </trkpt>
      <trkpt lat="46.25177" lon="6.79132">
        <ele>1781</ele>
        <time>2016-07-03T14:13:08.000Z</time>
      </trkpt>
      <trkpt lat="46.25177" lon="6.79131">
        <ele>1781</ele>
        <time>2016-07-03T14:13:09.000Z</time>
      </trkpt>
      <trkpt lat="46.25168" lon="6.79126">
        <ele>1783</ele>
        <time>2016-07-03T14:13:18.000Z</time>
      </trkpt>
      <trkpt lat="46.25167" lon="6.79125">
        <ele>1784</ele>
        <time>2016-07-03T14:13:19.000Z</time>
      </trkpt>
      <trkpt lat="46.25165" lon="6.79124">
        <ele>1785</ele>
        <time>2016-07-03T14:13:21.000Z</time>
      </trkpt>
      <trkpt lat="46.25167" lon="6.79138">
        <ele>1778</ele>
        <time>2016-07-03T14:13:22.000Z</time>
      </trkpt>
      <trkpt lat="46.2516" lon="6.79131">
        <ele>1781</ele>
        <time>2016-07-03T14:13:31.000Z</time>
      </trkpt>
      <trkpt lat="46.25159" lon="6.79129">
        <ele>1781</ele>
        <time>2016-07-03T14:13:32.000Z</time>
      </trkpt>
      <trkpt lat="46.25154" lon="6.79119">
        <ele>1785</ele>
        <time>2016-07-03T14:13:37.000Z</time>
      </trkpt>
      <trkpt lat="46.25154" lon="6.79118">
        <ele>1785</ele>
        <time>2016-07-03T14:13:38.000Z</time>
      </trkpt>
      <trkpt lat="46.25147" lon="6.79125">
        <ele>1777</ele>
        <time>2016-07-03T14:13:55.000Z</time>
      </trkpt>
      <trkpt lat="46.25146" lon="6.79124">
        <ele>1777</ele>
        <time>2016-07-03T14:13:56.000Z</time>
      </trkpt>
      <trkpt lat="46.25142" lon="6.79116">
        <ele>1780</ele>
        <time>2016-07-03T14:14:01.000Z</time>
      </trkpt>
      <trkpt lat="46.25141" lon="6.79113">
        <ele>1782</ele>
        <time>2016-07-03T14:14:02.000Z</time>
      </trkpt>
      <trkpt lat="46.25134" lon="6.79106">
        <ele>1784</ele>
        <time>2016-07-03T14:14:14.000Z</time>
      </trkpt>
      <trkpt lat="46.25133" lon="6.79104">
        <ele>1784</ele>
        <time>2016-07-03T14:14:15.000Z</time>
      </trkpt>
      <trkpt lat="46.25128" lon="6.79095">
        <ele>1789</ele>
        <time>2016-07-03T14:14:19.000Z</time>
      </trkpt>
      <trkpt lat="46.25126" lon="6.79092">
        <ele>1790</ele>
        <time>2016-07-03T14:14:20.000Z</time>
      </trkpt>
      <trkpt lat="46.25118" lon="6.79095">
        <ele>1787</ele>
        <time>2016-07-03T14:14:32.000Z</time>
      </trkpt>
      <trkpt lat="46.25117" lon="6.79095">
        <ele>1788</ele>
        <time>2016-07-03T14:14:33.000Z</time>
      </trkpt>
      <trkpt lat="46.25109" lon="6.79099">
        <ele>1789</ele>
        <time>2016-07-03T14:14:46.000Z</time>
      </trkpt>
      <trkpt lat="46.25108" lon="6.79098">
        <ele>1788</ele>
        <time>2016-07-03T14:14:47.000Z</time>
      </trkpt>
      <trkpt lat="46.251" lon="6.79097">
        <ele>1791</ele>
        <time>2016-07-03T14:15:02.000Z</time>
      </trkpt>
      <trkpt lat="46.25099" lon="6.79097">
        <ele>1792</ele>
        <time>2016-07-03T14:15:03.000Z</time>
      </trkpt>
      <trkpt lat="46.2509" lon="6.79101">
        <ele>1792</ele>
        <time>2016-07-03T14:15:19.000Z</time>
      </trkpt>
      <trkpt lat="46.25088" lon="6.79096">
        <ele>1795</ele>
        <time>2016-07-03T14:15:20.000Z</time>
      </trkpt>
      <trkpt lat="46.25081" lon="6.7909">
        <ele>1793</ele>
        <time>2016-07-03T14:15:28.000Z</time>
      </trkpt>
      <trkpt lat="46.2508" lon="6.79089">
        <ele>1794</ele>
        <time>2016-07-03T14:15:29.000Z</time>
      </trkpt>
      <trkpt lat="46.25071" lon="6.79091">
        <ele>1792</ele>
        <time>2016-07-03T14:15:42.000Z</time>
      </trkpt>
      <trkpt lat="46.25071" lon="6.79092">
        <ele>1792</ele>
        <time>2016-07-03T14:15:43.000Z</time>
      </trkpt>
      <trkpt lat="46.25063" lon="6.79088">
        <ele>1795</ele>
        <time>2016-07-03T14:15:51.000Z</time>
      </trkpt>
      <trkpt lat="46.25062" lon="6.79087">
        <ele>1795</ele>
        <time>2016-07-03T14:15:52.000Z</time>
      </trkpt>
      <trkpt lat="46.25054" lon="6.79089">
        <ele>1799</ele>
        <time>2016-07-03T14:16:06.000Z</time>
      </trkpt>
      <trkpt lat="46.25052" lon="6.79089">
        <ele>1799</ele>
        <time>2016-07-03T14:16:07.000Z</time>
      </trkpt>
      <trkpt lat="46.25044" lon="6.79089">
        <ele>1807</ele>
        <time>2016-07-03T14:16:28.000Z</time>
      </trkpt>
      <trkpt lat="46.25043" lon="6.79089">
        <ele>1807</ele>
        <time>2016-07-03T14:16:29.000Z</time>
      </trkpt>
      <trkpt lat="46.25035" lon="6.79084">
        <ele>1805</ele>
        <time>2016-07-03T14:16:39.000Z</time>
      </trkpt>
      <trkpt lat="46.25034" lon="6.79083">
        <ele>1804</ele>
        <time>2016-07-03T14:16:40.000Z</time>
      </trkpt>
      <trkpt lat="46.25026" lon="6.79078">
        <ele>1806</ele>
        <time>2016-07-03T14:16:52.000Z</time>
      </trkpt>
      <trkpt lat="46.25026" lon="6.79078">
        <ele>1806</ele>
        <time>2016-07-03T14:16:53.000Z</time>
      </trkpt>
      <trkpt lat="46.25017" lon="6.79078">
        <ele>1806</ele>
        <time>2016-07-03T14:17:03.000Z</time>
      </trkpt>
      <trkpt lat="46.25017" lon="6.79083">
        <ele>1807</ele>
        <time>2016-07-03T14:17:04.000Z</time>
      </trkpt>
      <trkpt lat="46.25009" lon="6.79081">
        <ele>1808</ele>
        <time>2016-07-03T14:17:12.000Z</time>
      </trkpt>
      <trkpt lat="46.25008" lon="6.79081">
        <ele>1808</ele>
        <time>2016-07-03T14:17:13.000Z</time>
      </trkpt>
      <trkpt lat="46.25" lon="6.79081">
        <ele>1806</ele>
        <time>2016-07-03T14:17:24.000Z</time>
      </trkpt>
      <trkpt lat="46.24998" lon="6.79081">
        <ele>1807</ele>
        <time>2016-07-03T14:17:25.000Z</time>
      </trkpt>
      <trkpt lat="46.24991" lon="6.79075">
        <ele>1807</ele>
        <time>2016-07-03T14:17:37.000Z</time>
      </trkpt>
      <trkpt lat="46.2499" lon="6.79073">
        <ele>1807</ele>
        <time>2016-07-03T14:17:38.000Z</time>
      </trkpt>
      <trkpt lat="46.24983" lon="6.79069">
        <ele>1809</ele>
        <time>2016-07-03T14:18:07.000Z</time>
      </trkpt>
      <trkpt lat="46.24982" lon="6.79068">
        <ele>1811</ele>
        <time>2016-07-03T14:18:08.000Z</time>
      </trkpt>
      <trkpt lat="46.24973" lon="6.79064">
        <ele>1812</ele>
        <time>2016-07-03T14:18:19.000Z</time>
      </trkpt>
      <trkpt lat="46.24972" lon="6.79062">
        <ele>1812</ele>
        <time>2016-07-03T14:18:20.000Z</time>
      </trkpt>
      <trkpt lat="46.24965" lon="6.79056">
        <ele>1811</ele>
        <time>2016-07-03T14:18:30.000Z</time>
      </trkpt>
      <trkpt lat="46.24965" lon="6.79054">
        <ele>1810</ele>
        <time>2016-07-03T14:18:31.000Z</time>
      </trkpt>
      <trkpt lat="46.24957" lon="6.79059">
        <ele>1812</ele>
        <time>2016-07-03T14:18:51.000Z</time>
      </trkpt>
      <trkpt lat="46.24956" lon="6.79057">
        <ele>1812</ele>
        <time>2016-07-03T14:18:52.000Z</time>
      </trkpt>
      <trkpt lat="46.24947" lon="6.79055">
        <ele>1812</ele>
        <time>2016-07-03T14:19:01.000Z</time>
      </trkpt>
      <trkpt lat="46.24947" lon="6.79054">
        <ele>1812</ele>
        <time>2016-07-03T14:19:02.000Z</time>
      </trkpt>
      <trkpt lat="46.24938" lon="6.7905">
        <ele>1812</ele>
        <time>2016-07-03T14:19:11.000Z</time>
      </trkpt>
      <trkpt lat="46.24938" lon="6.7905">
        <ele>1812</ele>
        <time>2016-07-03T14:19:12.000Z</time>
      </trkpt>
      <trkpt lat="46.24929" lon="6.79047">
        <ele>1814</ele>
        <time>2016-07-03T14:19:24.000Z</time>
      </trkpt>
      <trkpt lat="46.24929" lon="6.79046">
        <ele>1813</ele>
        <time>2016-07-03T14:19:25.000Z</time>
      </trkpt>
      <trkpt lat="46.2492" lon="6.79047">
        <ele>1817</ele>
        <time>2016-07-03T14:19:42.000Z</time>
      </trkpt>
      <trkpt lat="46.24919" lon="6.79046">
        <ele>1817</ele>
        <time>2016-07-03T14:19:43.000Z</time>
      </trkpt>
      <trkpt lat="46.24911" lon="6.79045">
        <ele>1818</ele>
        <time>2016-07-03T14:19:55.000Z</time>
      </trkpt>
      <trkpt lat="46.2491" lon="6.79045">
        <ele>1817</ele>
        <time>2016-07-03T14:19:56.000Z</time>
      </trkpt>
      <trkpt lat="46.24903" lon="6.7904">
        <ele>1818</ele>
        <time>2016-07-03T14:20:06.000Z</time>
      </trkpt>
      <trkpt lat="46.24901" lon="6.79039">
        <ele>1817</ele>
        <time>2016-07-03T14:20:07.000Z</time>
      </trkpt>
      <trkpt lat="46.24894" lon="6.79045">
        <ele>1825</ele>
        <time>2016-07-03T14:20:25.000Z</time>
      </trkpt>
      <trkpt lat="46.24893" lon="6.79045">
        <ele>1826</ele>
        <time>2016-07-03T14:20:26.000Z</time>
      </trkpt>
      <trkpt lat="46.24885" lon="6.79048">
        <ele>1828</ele>
        <time>2016-07-03T14:20:39.000Z</time>
      </trkpt>
      <trkpt lat="46.24884" lon="6.79048">
        <ele>1828</ele>
        <time>2016-07-03T14:20:40.000Z</time>
      </trkpt>
      <trkpt lat="46.24875" lon="6.7905">
        <ele>1827</ele>
        <time>2016-07-03T14:20:52.000Z</time>
      </trkpt>
      <trkpt lat="46.24875" lon="6.7905">
        <ele>1827</ele>
        <time>2016-07-03T14:20:53.000Z</time>
      </trkpt>
      <trkpt lat="46.24872" lon="6.79051">
        <ele>1826</ele>
        <time>2016-07-03T14:20:58.000Z</time>
      </trkpt>
      <trkpt lat="46.24872" lon="6.79051">
        <ele>1826</ele>
        <time>2016-07-03T14:20:59.000Z</time>
      </trkpt>
      <trkpt lat="46.24872" lon="6.79051">
        <ele>1827</ele>
        <time>2016-07-03T14:21:18.000Z</time>
      </trkpt>
      <trkpt lat="46.24871" lon="6.79051">
        <ele>1827</ele>
        <time>2016-07-03T14:21:19.000Z</time>
      </trkpt>
      <trkpt lat="46.24863" lon="6.79054">
        <ele>1829</ele>
        <time>2016-07-03T14:21:30.000Z</time>
      </trkpt>
      <trkpt lat="46.24862" lon="6.79054">
        <ele>1829</ele>
        <time>2016-07-03T14:21:31.000Z</time>
      </trkpt>
      <trkpt lat="46.24853" lon="6.79055">
        <ele>1830</ele>
        <time>2016-07-03T14:21:40.000Z</time>
      </trkpt>
      <trkpt lat="46.24852" lon="6.79052">
        <ele>1830</ele>
        <time>2016-07-03T14:21:41.000Z</time>
      </trkpt>
      <trkpt lat="46.24844" lon="6.79052">
        <ele>1830</ele>
        <time>2016-07-03T14:21:49.000Z</time>
      </trkpt>
      <trkpt lat="46.24842" lon="6.79051">
        <ele>1831</ele>
        <time>2016-07-03T14:21:50.000Z</time>
      </trkpt>
      <trkpt lat="46.24835" lon="6.79045">
        <ele>1834</ele>
        <time>2016-07-03T14:22:00.000Z</time>
      </trkpt>
      <trkpt lat="46.24835" lon="6.79044">
        <ele>1833</ele>
        <time>2016-07-03T14:22:01.000Z</time>
      </trkpt>
      <trkpt lat="46.24828" lon="6.79036">
        <ele>1838</ele>
        <time>2016-07-03T14:22:10.000Z</time>
      </trkpt>
      <trkpt lat="46.24827" lon="6.79035">
        <ele>1838</ele>
        <time>2016-07-03T14:22:11.000Z</time>
      </trkpt>
      <trkpt lat="46.24819" lon="6.79033">
        <ele>1839</ele>
        <time>2016-07-03T14:22:21.000Z</time>
      </trkpt>
      <trkpt lat="46.24818" lon="6.79032">
        <ele>1839</ele>
        <time>2016-07-03T14:22:22.000Z</time>
      </trkpt>
      <trkpt lat="46.24813" lon="6.79023">
        <ele>1839</ele>
        <time>2016-07-03T14:22:33.000Z</time>
      </trkpt>
      <trkpt lat="46.24812" lon="6.79021">
        <ele>1839</ele>
        <time>2016-07-03T14:22:34.000Z</time>
      </trkpt>
      <trkpt lat="46.24807" lon="6.79012">
        <ele>1839</ele>
        <time>2016-07-03T14:22:45.000Z</time>
      </trkpt>
      <trkpt lat="46.24806" lon="6.79012">
        <ele>1840</ele>
        <time>2016-07-03T14:22:46.000Z</time>
      </trkpt>
      <trkpt lat="46.24801" lon="6.79002">
        <ele>1842</ele>
        <time>2016-07-03T14:22:58.000Z</time>
      </trkpt>
      <trkpt lat="46.248" lon="6.79001">
        <ele>1842</ele>
        <time>2016-07-03T14:22:59.000Z</time>
      </trkpt>
      <trkpt lat="46.24797" lon="6.7899">
        <ele>1845</ele>
        <time>2016-07-03T14:23:06.000Z</time>
      </trkpt>
      <trkpt lat="46.24797" lon="6.78989">
        <ele>1845</ele>
        <time>2016-07-03T14:23:07.000Z</time>
      </trkpt>
      <trkpt lat="46.24805" lon="6.78987">
        <ele>1844</ele>
        <time>2016-07-03T14:23:20.000Z</time>
      </trkpt>
      <trkpt lat="46.24806" lon="6.78986">
        <ele>1843</ele>
        <time>2016-07-03T14:23:21.000Z</time>
      </trkpt>
      <trkpt lat="46.24812" lon="6.78994">
        <ele>1842</ele>
        <time>2016-07-03T14:23:29.000Z</time>
      </trkpt>
      <trkpt lat="46.24813" lon="6.78995">
        <ele>1841</ele>
        <time>2016-07-03T14:23:30.000Z</time>
      </trkpt>
      <trkpt lat="46.24821" lon="6.78999">
        <ele>1841</ele>
        <time>2016-07-03T14:23:42.000Z</time>
      </trkpt>
      <trkpt lat="46.24822" lon="6.78999">
        <ele>1842</ele>
        <time>2016-07-03T14:23:43.000Z</time>
      </trkpt>
      <trkpt lat="46.2483" lon="6.79002">
        <ele>1843</ele>
        <time>2016-07-03T14:23:55.000Z</time>
      </trkpt>
      <trkpt lat="46.24831" lon="6.79003">
        <ele>1843</ele>
        <time>2016-07-03T14:23:56.000Z</time>
      </trkpt>
      <trkpt lat="46.24839" lon="6.78999">
        <ele>1845</ele>
        <time>2016-07-03T14:24:11.000Z</time>
      </trkpt>
      <trkpt lat="46.2484" lon="6.78998">
        <ele>1845</ele>
        <time>2016-07-03T14:24:12.000Z</time>
      </trkpt>
      <trkpt lat="46.24832" lon="6.78991">
        <ele>1847</ele>
        <time>2016-07-03T14:24:30.000Z</time>
      </trkpt>
      <trkpt lat="46.24831" lon="6.7899">
        <ele>1847</ele>
        <time>2016-07-03T14:24:31.000Z</time>
      </trkpt>
      <trkpt lat="46.24825" lon="6.78984">
        <ele>1849</ele>
        <time>2016-07-03T14:24:39.000Z</time>
      </trkpt>
      <trkpt lat="46.24824" lon="6.78982">
        <ele>1850</ele>
        <time>2016-07-03T14:24:40.000Z</time>
      </trkpt>
      <trkpt lat="46.2482" lon="6.7897">
        <ele>1853</ele>
        <time>2016-07-03T14:24:57.000Z</time>
      </trkpt>
      <trkpt lat="46.24819" lon="6.7897">
        <ele>1853</ele>
        <time>2016-07-03T14:24:58.000Z</time>
      </trkpt>
      <trkpt lat="46.24816" lon="6.78958">
        <ele>1855</ele>
        <time>2016-07-03T14:25:10.000Z</time>
      </trkpt>
      <trkpt lat="46.24815" lon="6.78958">
        <ele>1855</ele>
        <time>2016-07-03T14:25:11.000Z</time>
      </trkpt>
      <trkpt lat="46.24807" lon="6.78954">
        <ele>1858</ele>
        <time>2016-07-03T14:25:23.000Z</time>
      </trkpt>
      <trkpt lat="46.24807" lon="6.78953">
        <ele>1859</ele>
        <time>2016-07-03T14:25:24.000Z</time>
      </trkpt>
      <trkpt lat="46.248" lon="6.78945">
        <ele>1859</ele>
        <time>2016-07-03T14:25:30.000Z</time>
      </trkpt>
      <trkpt lat="46.24799" lon="6.78945">
        <ele>1859</ele>
        <time>2016-07-03T14:25:31.000Z</time>
      </trkpt>
      <trkpt lat="46.24791" lon="6.78943">
        <ele>1864</ele>
        <time>2016-07-03T14:26:26.000Z</time>
      </trkpt>
      <trkpt lat="46.2479" lon="6.78942">
        <ele>1864</ele>
        <time>2016-07-03T14:26:27.000Z</time>
      </trkpt>
      <trkpt lat="46.24787" lon="6.78932">
        <ele>1863</ele>
        <time>2016-07-03T14:26:31.000Z</time>
      </trkpt>
      <trkpt lat="46.24785" lon="6.7893">
        <ele>1862</ele>
        <time>2016-07-03T14:26:32.000Z</time>
      </trkpt>
      <trkpt lat="46.24779" lon="6.78921">
        <ele>1862</ele>
        <time>2016-07-03T14:26:40.000Z</time>
      </trkpt>
      <trkpt lat="46.24778" lon="6.7892">
        <ele>1862</ele>
        <time>2016-07-03T14:26:41.000Z</time>
      </trkpt>
      <trkpt lat="46.24786" lon="6.78915">
        <ele>1864</ele>
        <time>2016-07-03T14:26:56.000Z</time>
      </trkpt>
      <trkpt lat="46.24787" lon="6.78916">
        <ele>1863</ele>
        <time>2016-07-03T14:26:57.000Z</time>
      </trkpt>
      <trkpt lat="46.24794" lon="6.78923">
        <ele>1868</ele>
        <time>2016-07-03T14:27:12.000Z</time>
      </trkpt>
      <trkpt lat="46.24794" lon="6.78925">
        <ele>1869</ele>
        <time>2016-07-03T14:27:13.000Z</time>
      </trkpt>
      <trkpt lat="46.24803" lon="6.78926">
        <ele>1871</ele>
        <time>2016-07-03T14:27:27.000Z</time>
      </trkpt>
      <trkpt lat="46.24804" lon="6.78926">
        <ele>1872</ele>
        <time>2016-07-03T14:27:28.000Z</time>
      </trkpt>
      <trkpt lat="46.24812" lon="6.78926">
        <ele>1873</ele>
        <time>2016-07-03T14:27:36.000Z</time>
      </trkpt>
      <trkpt lat="46.24813" lon="6.78926">
        <ele>1873</ele>
        <time>2016-07-03T14:27:37.000Z</time>
      </trkpt>
      <trkpt lat="46.24821" lon="6.78926">
        <ele>1875</ele>
        <time>2016-07-03T14:27:49.000Z</time>
      </trkpt>
      <trkpt lat="46.24822" lon="6.78926">
        <ele>1875</ele>
        <time>2016-07-03T14:27:50.000Z</time>
      </trkpt>
      <trkpt lat="46.2483" lon="6.78932">
        <ele>1874</ele>
        <time>2016-07-03T14:28:01.000Z</time>
      </trkpt>
      <trkpt lat="46.2483" lon="6.78933">
        <ele>1874</ele>
        <time>2016-07-03T14:28:02.000Z</time>
      </trkpt>
      <trkpt lat="46.24838" lon="6.78928">
        <ele>1873</ele>
        <time>2016-07-03T14:28:11.000Z</time>
      </trkpt>
      <trkpt lat="46.24839" lon="6.78925">
        <ele>1873</ele>
        <time>2016-07-03T14:28:12.000Z</time>
      </trkpt>
      <trkpt lat="46.24833" lon="6.78918">
        <ele>1875</ele>
        <time>2016-07-03T14:28:34.000Z</time>
      </trkpt>
      <trkpt lat="46.24831" lon="6.78918">
        <ele>1876</ele>
        <time>2016-07-03T14:28:35.000Z</time>
      </trkpt>
      <trkpt lat="46.24824" lon="6.78913">
        <ele>1876</ele>
        <time>2016-07-03T14:28:44.000Z</time>
      </trkpt>
      <trkpt lat="46.24823" lon="6.78913">
        <ele>1877</ele>
        <time>2016-07-03T14:28:45.000Z</time>
      </trkpt>
      <trkpt lat="46.24815" lon="6.7891">
        <ele>1877</ele>
        <time>2016-07-03T14:28:57.000Z</time>
      </trkpt>
      <trkpt lat="46.24814" lon="6.7891">
        <ele>1878</ele>
        <time>2016-07-03T14:28:58.000Z</time>
      </trkpt>
      <trkpt lat="46.24809" lon="6.789">
        <ele>1877</ele>
        <time>2016-07-03T14:29:11.000Z</time>
      </trkpt>
      <trkpt lat="46.24808" lon="6.78899">
        <ele>1877</ele>
        <time>2016-07-03T14:29:12.000Z</time>
      </trkpt>
      <trkpt lat="46.24802" lon="6.78889">
        <ele>1877</ele>
        <time>2016-07-03T14:29:24.000Z</time>
      </trkpt>
      <trkpt lat="46.24802" lon="6.78887">
        <ele>1877</ele>
        <time>2016-07-03T14:29:25.000Z</time>
      </trkpt>
      <trkpt lat="46.24797" lon="6.78877">
        <ele>1876</ele>
        <time>2016-07-03T14:29:43.000Z</time>
      </trkpt>
      <trkpt lat="46.24796" lon="6.78876">
        <ele>1876</ele>
        <time>2016-07-03T14:29:44.000Z</time>
      </trkpt>
      <trkpt lat="46.24791" lon="6.78868">
        <ele>1879</ele>
        <time>2016-07-03T14:29:50.000Z</time>
      </trkpt>
      <trkpt lat="46.24789" lon="6.78867">
        <ele>1879</ele>
        <time>2016-07-03T14:29:51.000Z</time>
      </trkpt>
      <trkpt lat="46.24786" lon="6.78855">
        <ele>1882</ele>
        <time>2016-07-03T14:30:03.000Z</time>
      </trkpt>
      <trkpt lat="46.24786" lon="6.78854">
        <ele>1883</ele>
        <time>2016-07-03T14:30:04.000Z</time>
      </trkpt>
      <trkpt lat="46.24782" lon="6.78844">
        <ele>1882</ele>
        <time>2016-07-03T14:30:14.000Z</time>
      </trkpt>
      <trkpt lat="46.24781" lon="6.78843">
        <ele>1884</ele>
        <time>2016-07-03T14:30:15.000Z</time>
      </trkpt>
      <trkpt lat="46.24775" lon="6.78837">
        <ele>1887</ele>
        <time>2016-07-03T14:30:29.000Z</time>
      </trkpt>
      <trkpt lat="46.24773" lon="6.78836">
        <ele>1887</ele>
        <time>2016-07-03T14:30:30.000Z</time>
      </trkpt>
      <trkpt lat="46.24766" lon="6.78828">
        <ele>1890</ele>
        <time>2016-07-03T14:30:40.000Z</time>
      </trkpt>
      <trkpt lat="46.24765" lon="6.78826">
        <ele>1889</ele>
        <time>2016-07-03T14:30:41.000Z</time>
      </trkpt>
      <trkpt lat="46.24765" lon="6.78814">
        <ele>1889</ele>
        <time>2016-07-03T14:30:53.000Z</time>
      </trkpt>
      <trkpt lat="46.24765" lon="6.78813">
        <ele>1890</ele>
        <time>2016-07-03T14:30:54.000Z</time>
      </trkpt>
      <trkpt lat="46.2476" lon="6.78803">
        <ele>1892</ele>
        <time>2016-07-03T14:34:19.000Z</time>
      </trkpt>
      <trkpt lat="46.24759" lon="6.78803">
        <ele>1891</ele>
        <time>2016-07-03T14:34:20.000Z</time>
      </trkpt>
      <trkpt lat="46.24757" lon="6.78792">
        <ele>1889</ele>
        <time>2016-07-03T14:34:27.000Z</time>
      </trkpt>
      <trkpt lat="46.24756" lon="6.7879">
        <ele>1888</ele>
        <time>2016-07-03T14:34:28.000Z</time>
      </trkpt>
      <trkpt lat="46.24753" lon="6.78781">
        <ele>1888</ele>
        <time>2016-07-03T14:34:34.000Z</time>
      </trkpt>
      <trkpt lat="46.24752" lon="6.78778">
        <ele>1887</ele>
        <time>2016-07-03T14:34:35.000Z</time>
      </trkpt>
      <trkpt lat="46.24749" lon="6.78767">
        <ele>1887</ele>
        <time>2016-07-03T14:34:50.000Z</time>
      </trkpt>
      <trkpt lat="46.24749" lon="6.78765">
        <ele>1888</ele>
        <time>2016-07-03T14:34:51.000Z</time>
      </trkpt>
      <trkpt lat="46.24747" lon="6.78753">
        <ele>1885</ele>
        <time>2016-07-03T14:34:59.000Z</time>
      </trkpt>
      <trkpt lat="46.24747" lon="6.7875">
        <ele>1885</ele>
        <time>2016-07-03T14:35:00.000Z</time>
      </trkpt>
      <trkpt lat="46.24748" lon="6.78738">
        <ele>1882</ele>
        <time>2016-07-03T14:35:07.000Z</time>
      </trkpt>
      <trkpt lat="46.24747" lon="6.78736">
        <ele>1883</ele>
        <time>2016-07-03T14:35:08.000Z</time>
      </trkpt>
      <trkpt lat="46.24745" lon="6.78724">
        <ele>1882</ele>
        <time>2016-07-03T14:35:17.000Z</time>
      </trkpt>
      <trkpt lat="46.24744" lon="6.78723">
        <ele>1883</ele>
        <time>2016-07-03T14:35:18.000Z</time>
      </trkpt>
      <trkpt lat="46.24744" lon="6.7871">
        <ele>1882</ele>
        <time>2016-07-03T14:35:29.000Z</time>
      </trkpt>
      <trkpt lat="46.24744" lon="6.78708">
        <ele>1882</ele>
        <time>2016-07-03T14:35:30.000Z</time>
      </trkpt>
      <trkpt lat="46.24747" lon="6.78697">
        <ele>1881</ele>
        <time>2016-07-03T14:35:39.000Z</time>
      </trkpt>
      <trkpt lat="46.24747" lon="6.78694">
        <ele>1881</ele>
        <time>2016-07-03T14:35:40.000Z</time>
      </trkpt>
      <trkpt lat="46.24747" lon="6.78684">
        <ele>1881</ele>
        <time>2016-07-03T14:35:48.000Z</time>
      </trkpt>
      <trkpt lat="46.24745" lon="6.78681">
        <ele>1881</ele>
        <time>2016-07-03T14:35:49.000Z</time>
      </trkpt>
      <trkpt lat="46.24747" lon="6.78668">
        <ele>1880</ele>
        <time>2016-07-03T14:35:57.000Z</time>
      </trkpt>
      <trkpt lat="46.24747" lon="6.78667">
        <ele>1879</ele>
        <time>2016-07-03T14:35:58.000Z</time>
      </trkpt>
      <trkpt lat="46.24745" lon="6.78656">
        <ele>1882</ele>
        <time>2016-07-03T14:36:07.000Z</time>
      </trkpt>
      <trkpt lat="46.24744" lon="6.78653">
        <ele>1884</ele>
        <time>2016-07-03T14:36:08.000Z</time>
      </trkpt>
      <trkpt lat="46.24747" lon="6.78642">
        <ele>1883</ele>
        <time>2016-07-03T14:36:15.000Z</time>
      </trkpt>
      <trkpt lat="46.24748" lon="6.7864">
        <ele>1885</ele>
        <time>2016-07-03T14:36:16.000Z</time>
      </trkpt>
      <trkpt lat="46.2475" lon="6.78628">
        <ele>1886</ele>
        <time>2016-07-03T14:36:23.000Z</time>
      </trkpt>
      <trkpt lat="46.24751" lon="6.78627">
        <ele>1887</ele>
        <time>2016-07-03T14:36:24.000Z</time>
      </trkpt>
      <trkpt lat="46.24758" lon="6.78622">
        <ele>1879</ele>
        <time>2016-07-03T14:36:30.000Z</time>
      </trkpt>
      <trkpt lat="46.24759" lon="6.7862">
        <ele>1878</ele>
        <time>2016-07-03T14:36:31.000Z</time>
      </trkpt>
      <trkpt lat="46.2476" lon="6.78607">
        <ele>1879</ele>
        <time>2016-07-03T14:36:44.000Z</time>
      </trkpt>
      <trkpt lat="46.2476" lon="6.78604">
        <ele>1880</ele>
        <time>2016-07-03T14:36:45.000Z</time>
      </trkpt>
      <trkpt lat="46.24762" lon="6.78592">
        <ele>1882</ele>
        <time>2016-07-03T14:36:52.000Z</time>
      </trkpt>
      <trkpt lat="46.24763" lon="6.7859">
        <ele>1881</ele>
        <time>2016-07-03T14:36:53.000Z</time>
      </trkpt>
      <trkpt lat="46.24766" lon="6.7858">
        <ele>1880</ele>
        <time>2016-07-03T14:36:58.000Z</time>
      </trkpt>
      <trkpt lat="46.24767" lon="6.78578">
        <ele>1881</ele>
        <time>2016-07-03T14:36:59.000Z</time>
      </trkpt>
      <trkpt lat="46.2477" lon="6.78566">
        <ele>1878</ele>
        <time>2016-07-03T14:37:06.000Z</time>
      </trkpt>
      <trkpt lat="46.24769" lon="6.78564">
        <ele>1876</ele>
        <time>2016-07-03T14:37:07.000Z</time>
      </trkpt>
      <trkpt lat="46.24771" lon="6.78552">
        <ele>1877</ele>
        <time>2016-07-03T14:37:15.000Z</time>
      </trkpt>
      <trkpt lat="46.24771" lon="6.7855">
        <ele>1877</ele>
        <time>2016-07-03T14:37:16.000Z</time>
      </trkpt>
      <trkpt lat="46.24774" lon="6.78538">
        <ele>1873</ele>
        <time>2016-07-03T14:37:22.000Z</time>
      </trkpt>
      <trkpt lat="46.24775" lon="6.78536">
        <ele>1874</ele>
        <time>2016-07-03T14:37:23.000Z</time>
      </trkpt>
      <trkpt lat="46.24778" lon="6.78525">
        <ele>1871</ele>
        <time>2016-07-03T14:37:32.000Z</time>
      </trkpt>
      <trkpt lat="46.24779" lon="6.78524">
        <ele>1871</ele>
        <time>2016-07-03T14:37:33.000Z</time>
      </trkpt>
      <trkpt lat="46.24782" lon="6.78512">
        <ele>1869</ele>
        <time>2016-07-03T14:37:42.000Z</time>
      </trkpt>
      <trkpt lat="46.24783" lon="6.78511">
        <ele>1868</ele>
        <time>2016-07-03T14:37:43.000Z</time>
      </trkpt>
      <trkpt lat="46.24785" lon="6.78501">
        <ele>1869</ele>
        <time>2016-07-03T14:37:50.000Z</time>
      </trkpt>
      <trkpt lat="46.24786" lon="6.78498">
        <ele>1869</ele>
        <time>2016-07-03T14:37:51.000Z</time>
      </trkpt>
      <trkpt lat="46.24787" lon="6.78487">
        <ele>1871</ele>
        <time>2016-07-03T14:37:58.000Z</time>
      </trkpt>
      <trkpt lat="46.24786" lon="6.78485">
        <ele>1872</ele>
        <time>2016-07-03T14:37:59.000Z</time>
      </trkpt>
      <trkpt lat="46.24786" lon="6.78474">
        <ele>1873</ele>
        <time>2016-07-03T14:38:06.000Z</time>
      </trkpt>
      <trkpt lat="46.24786" lon="6.78471">
        <ele>1873</ele>
        <time>2016-07-03T14:38:07.000Z</time>
      </trkpt>
      <trkpt lat="46.24788" lon="6.78459">
        <ele>1871</ele>
        <time>2016-07-03T14:38:17.000Z</time>
      </trkpt>
      <trkpt lat="46.24788" lon="6.78458">
        <ele>1870</ele>
        <time>2016-07-03T14:38:18.000Z</time>
      </trkpt>
      <trkpt lat="46.24791" lon="6.78446">
        <ele>1868</ele>
        <time>2016-07-03T14:38:25.000Z</time>
      </trkpt>
      <trkpt lat="46.2479" lon="6.78443">
        <ele>1868</ele>
        <time>2016-07-03T14:38:26.000Z</time>
      </trkpt>
      <trkpt lat="46.24793" lon="6.78432">
        <ele>1870</ele>
        <time>2016-07-03T14:38:32.000Z</time>
      </trkpt>
      <trkpt lat="46.24793" lon="6.78429">
        <ele>1871</ele>
        <time>2016-07-03T14:38:33.000Z</time>
      </trkpt>
      <trkpt lat="46.24798" lon="6.78419">
        <ele>1863</ele>
        <time>2016-07-03T14:38:40.000Z</time>
      </trkpt>
      <trkpt lat="46.24798" lon="6.78419">
        <ele>1863</ele>
        <time>2016-07-03T14:38:41.000Z</time>
      </trkpt>
      <trkpt lat="46.24799" lon="6.78406">
        <ele>1860</ele>
        <time>2016-07-03T14:38:47.000Z</time>
      </trkpt>
      <trkpt lat="46.24801" lon="6.78406">
        <ele>1857</ele>
        <time>2016-07-03T14:38:48.000Z</time>
      </trkpt>
      <trkpt lat="46.248" lon="6.78395">
        <ele>1858</ele>
        <time>2016-07-03T14:38:53.000Z</time>
      </trkpt>
      <trkpt lat="46.24799" lon="6.78393">
        <ele>1859</ele>
        <time>2016-07-03T14:38:54.000Z</time>
      </trkpt>
      <trkpt lat="46.24803" lon="6.78382">
        <ele>1852</ele>
        <time>2016-07-03T14:39:23.000Z</time>
      </trkpt>
      <trkpt lat="46.24804" lon="6.7838">
        <ele>1853</ele>
        <time>2016-07-03T14:39:24.000Z</time>
      </trkpt>
      <trkpt lat="46.24804" lon="6.78368">
        <ele>1852</ele>
        <time>2016-07-03T14:39:32.000Z</time>
      </trkpt>
      <trkpt lat="46.24804" lon="6.78366">
        <ele>1853</ele>
        <time>2016-07-03T14:39:33.000Z</time>
      </trkpt>
      <trkpt lat="46.24807" lon="6.78354">
        <ele>1847</ele>
        <time>2016-07-03T14:39:41.000Z</time>
      </trkpt>
      <trkpt lat="46.24807" lon="6.78352">
        <ele>1846</ele>
        <time>2016-07-03T14:39:42.000Z</time>
      </trkpt>
      <trkpt lat="46.24812" lon="6.78343">
        <ele>1842</ele>
        <time>2016-07-03T14:39:49.000Z</time>
      </trkpt>
      <trkpt lat="46.24812" lon="6.78341">
        <ele>1843</ele>
        <time>2016-07-03T14:39:50.000Z</time>
      </trkpt>
      <trkpt lat="46.24813" lon="6.7833">
        <ele>1844</ele>
        <time>2016-07-03T14:39:57.000Z</time>
      </trkpt>
      <trkpt lat="46.24813" lon="6.78328">
        <ele>1844</ele>
        <time>2016-07-03T14:39:58.000Z</time>
      </trkpt>
      <trkpt lat="46.24813" lon="6.78316">
        <ele>1841</ele>
        <time>2016-07-03T14:40:04.000Z</time>
      </trkpt>
      <trkpt lat="46.24813" lon="6.78314">
        <ele>1841</ele>
        <time>2016-07-03T14:40:05.000Z</time>
      </trkpt>
      <trkpt lat="46.24815" lon="6.78302">
        <ele>1842</ele>
        <time>2016-07-03T14:40:13.000Z</time>
      </trkpt>
      <trkpt lat="46.24815" lon="6.783">
        <ele>1842</ele>
        <time>2016-07-03T14:40:14.000Z</time>
      </trkpt>
      <trkpt lat="46.24815" lon="6.78288">
        <ele>1841</ele>
        <time>2016-07-03T14:40:21.000Z</time>
      </trkpt>
      <trkpt lat="46.24815" lon="6.78286">
        <ele>1842</ele>
        <time>2016-07-03T14:40:22.000Z</time>
      </trkpt>
      <trkpt lat="46.24816" lon="6.78275">
        <ele>1845</ele>
        <time>2016-07-03T14:40:28.000Z</time>
      </trkpt>
      <trkpt lat="46.24817" lon="6.78272">
        <ele>1845</ele>
        <time>2016-07-03T14:40:29.000Z</time>
      </trkpt>
      <trkpt lat="46.24822" lon="6.78263">
        <ele>1845</ele>
        <time>2016-07-03T14:40:36.000Z</time>
      </trkpt>
      <trkpt lat="46.24824" lon="6.78262">
        <ele>1843</ele>
        <time>2016-07-03T14:40:37.000Z</time>
      </trkpt>
      <trkpt lat="46.24831" lon="6.78255">
        <ele>1838</ele>
        <time>2016-07-03T14:40:43.000Z</time>
      </trkpt>
      <trkpt lat="46.24832" lon="6.78254">
        <ele>1838</ele>
        <time>2016-07-03T14:40:44.000Z</time>
      </trkpt>
      <trkpt lat="46.24832" lon="6.78241">
        <ele>1837</ele>
        <time>2016-07-03T14:40:52.000Z</time>
      </trkpt>
      <trkpt lat="46.24831" lon="6.78237">
        <ele>1836</ele>
        <time>2016-07-03T14:40:53.000Z</time>
      </trkpt>
      <trkpt lat="46.2483" lon="6.78224">
        <ele>1834</ele>
        <time>2016-07-03T14:40:59.000Z</time>
      </trkpt>
      <trkpt lat="46.24831" lon="6.78222">
        <ele>1833</ele>
        <time>2016-07-03T14:41:00.000Z</time>
      </trkpt>
      <trkpt lat="46.24836" lon="6.78212">
        <ele>1833</ele>
        <time>2016-07-03T14:41:07.000Z</time>
      </trkpt>
      <trkpt lat="46.24837" lon="6.78211">
        <ele>1834</ele>
        <time>2016-07-03T14:41:08.000Z</time>
      </trkpt>
      <trkpt lat="46.24836" lon="6.78198">
        <ele>1839</ele>
        <time>2016-07-03T14:41:14.000Z</time>
      </trkpt>
      <trkpt lat="46.24837" lon="6.78197">
        <ele>1840</ele>
        <time>2016-07-03T14:41:15.000Z</time>
      </trkpt>
      <trkpt lat="46.24839" lon="6.78184">
        <ele>1838</ele>
        <time>2016-07-03T14:41:21.000Z</time>
      </trkpt>
      <trkpt lat="46.2484" lon="6.78183">
        <ele>1838</ele>
        <time>2016-07-03T14:41:22.000Z</time>
      </trkpt>
      <trkpt lat="46.2484" lon="6.7817">
        <ele>1838</ele>
        <time>2016-07-03T14:41:29.000Z</time>
      </trkpt>
      <trkpt lat="46.24839" lon="6.78168">
        <ele>1839</ele>
        <time>2016-07-03T14:41:30.000Z</time>
      </trkpt>
      <trkpt lat="46.24842" lon="6.78157">
        <ele>1837</ele>
        <time>2016-07-03T14:41:36.000Z</time>
      </trkpt>
      <trkpt lat="46.24842" lon="6.78156">
        <ele>1837</ele>
        <time>2016-07-03T14:41:37.000Z</time>
      </trkpt>
      <trkpt lat="46.24845" lon="6.78144">
        <ele>1834</ele>
        <time>2016-07-03T14:41:45.000Z</time>
      </trkpt>
      <trkpt lat="46.24845" lon="6.78142">
        <ele>1834</ele>
        <time>2016-07-03T14:41:46.000Z</time>
      </trkpt>
      <trkpt lat="46.24847" lon="6.78131">
        <ele>1827</ele>
        <time>2016-07-03T14:41:53.000Z</time>
      </trkpt>
      <trkpt lat="46.24848" lon="6.7813">
        <ele>1827</ele>
        <time>2016-07-03T14:41:54.000Z</time>
      </trkpt>
      <trkpt lat="46.2485" lon="6.78117">
        <ele>1831</ele>
        <time>2016-07-03T14:42:02.000Z</time>
      </trkpt>
      <trkpt lat="46.24851" lon="6.78116">
        <ele>1829</ele>
        <time>2016-07-03T14:42:03.000Z</time>
      </trkpt>
      <trkpt lat="46.24852" lon="6.78105">
        <ele>1833</ele>
        <time>2016-07-03T14:42:10.000Z</time>
      </trkpt>
      <trkpt lat="46.24852" lon="6.78102">
        <ele>1831</ele>
        <time>2016-07-03T14:42:11.000Z</time>
      </trkpt>
      <trkpt lat="46.24853" lon="6.7809">
        <ele>1826</ele>
        <time>2016-07-03T14:42:19.000Z</time>
      </trkpt>
      <trkpt lat="46.24853" lon="6.78088">
        <ele>1826</ele>
        <time>2016-07-03T14:42:20.000Z</time>
      </trkpt>
      <trkpt lat="46.24855" lon="6.78076">
        <ele>1821</ele>
        <time>2016-07-03T14:42:28.000Z</time>
      </trkpt>
      <trkpt lat="46.24856" lon="6.78075">
        <ele>1820</ele>
        <time>2016-07-03T14:42:29.000Z</time>
      </trkpt>
      <trkpt lat="46.24856" lon="6.78064">
        <ele>1819</ele>
        <time>2016-07-03T14:42:34.000Z</time>
      </trkpt>
      <trkpt lat="46.24855" lon="6.78061">
        <ele>1820</ele>
        <time>2016-07-03T14:42:35.000Z</time>
      </trkpt>
      <trkpt lat="46.24854" lon="6.78049">
        <ele>1821</ele>
        <time>2016-07-03T14:42:44.000Z</time>
      </trkpt>
      <trkpt lat="46.24854" lon="6.78047">
        <ele>1821</ele>
        <time>2016-07-03T14:42:45.000Z</time>
      </trkpt>
      <trkpt lat="46.24853" lon="6.78035">
        <ele>1817</ele>
        <time>2016-07-03T14:42:52.000Z</time>
      </trkpt>
      <trkpt lat="46.24853" lon="6.78034">
        <ele>1817</ele>
        <time>2016-07-03T14:42:53.000Z</time>
      </trkpt>
      <trkpt lat="46.24853" lon="6.78022">
        <ele>1812</ele>
        <time>2016-07-03T14:43:00.000Z</time>
      </trkpt>
      <trkpt lat="46.24852" lon="6.7802">
        <ele>1811</ele>
        <time>2016-07-03T14:43:01.000Z</time>
      </trkpt>
      <trkpt lat="46.24855" lon="6.78008">
        <ele>1811</ele>
        <time>2016-07-03T14:43:08.000Z</time>
      </trkpt>
      <trkpt lat="46.24855" lon="6.78007">
        <ele>1811</ele>
        <time>2016-07-03T14:43:09.000Z</time>
      </trkpt>
      <trkpt lat="46.24853" lon="6.77995">
        <ele>1811</ele>
        <time>2016-07-03T14:43:16.000Z</time>
      </trkpt>
      <trkpt lat="46.24853" lon="6.77994">
        <ele>1811</ele>
        <time>2016-07-03T14:43:17.000Z</time>
      </trkpt>
      <trkpt lat="46.24852" lon="6.77981">
        <ele>1813</ele>
        <time>2016-07-03T14:43:25.000Z</time>
      </trkpt>
      <trkpt lat="46.24852" lon="6.77979">
        <ele>1814</ele>
        <time>2016-07-03T14:43:26.000Z</time>
      </trkpt>
      <trkpt lat="46.24854" lon="6.77967">
        <ele>1814</ele>
        <time>2016-07-03T14:43:34.000Z</time>
      </trkpt>
      <trkpt lat="46.24855" lon="6.77965">
        <ele>1814</ele>
        <time>2016-07-03T14:43:35.000Z</time>
      </trkpt>
      <trkpt lat="46.24858" lon="6.77955">
        <ele>1812</ele>
        <time>2016-07-03T14:43:42.000Z</time>
      </trkpt>
      <trkpt lat="46.24859" lon="6.77953">
        <ele>1811</ele>
        <time>2016-07-03T14:43:43.000Z</time>
      </trkpt>
      <trkpt lat="46.24861" lon="6.77942">
        <ele>1804</ele>
        <time>2016-07-03T14:43:51.000Z</time>
      </trkpt>
      <trkpt lat="46.24862" lon="6.77941">
        <ele>1804</ele>
        <time>2016-07-03T14:43:52.000Z</time>
      </trkpt>
      <trkpt lat="46.24865" lon="6.7793">
        <ele>1798</ele>
        <time>2016-07-03T14:44:00.000Z</time>
      </trkpt>
      <trkpt lat="46.24864" lon="6.77927">
        <ele>1799</ele>
        <time>2016-07-03T14:44:01.000Z</time>
      </trkpt>
      <trkpt lat="46.24864" lon="6.77915">
        <ele>1801</ele>
        <time>2016-07-03T14:44:08.000Z</time>
      </trkpt>
      <trkpt lat="46.24863" lon="6.77912">
        <ele>1800</ele>
        <time>2016-07-03T14:44:09.000Z</time>
      </trkpt>
      <trkpt lat="46.24859" lon="6.77901">
        <ele>1800</ele>
        <time>2016-07-03T14:44:17.000Z</time>
      </trkpt>
      <trkpt lat="46.24859" lon="6.77899">
        <ele>1800</ele>
        <time>2016-07-03T14:44:18.000Z</time>
      </trkpt>
      <trkpt lat="46.24857" lon="6.77886">
        <ele>1799</ele>
        <time>2016-07-03T14:44:25.000Z</time>
      </trkpt>
      <trkpt lat="46.24858" lon="6.77885">
        <ele>1799</ele>
        <time>2016-07-03T14:44:26.000Z</time>
      </trkpt>
      <trkpt lat="46.24854" lon="6.77874">
        <ele>1797</ele>
        <time>2016-07-03T14:44:33.000Z</time>
      </trkpt>
      <trkpt lat="46.24853" lon="6.77873">
        <ele>1797</ele>
        <time>2016-07-03T14:44:34.000Z</time>
      </trkpt>
      <trkpt lat="46.24845" lon="6.77876">
        <ele>1797</ele>
        <time>2016-07-03T14:44:41.000Z</time>
      </trkpt>
      <trkpt lat="46.24845" lon="6.77877">
        <ele>1797</ele>
        <time>2016-07-03T14:44:42.000Z</time>
      </trkpt>
      <trkpt lat="46.2484" lon="6.77888">
        <ele>1796</ele>
        <time>2016-07-03T14:44:48.000Z</time>
      </trkpt>
      <trkpt lat="46.24839" lon="6.77889">
        <ele>1797</ele>
        <time>2016-07-03T14:44:49.000Z</time>
      </trkpt>
      <trkpt lat="46.24834" lon="6.77898">
        <ele>1796</ele>
        <time>2016-07-03T14:44:56.000Z</time>
      </trkpt>
      <trkpt lat="46.24834" lon="6.77899">
        <ele>1796</ele>
        <time>2016-07-03T14:44:57.000Z</time>
      </trkpt>
      <trkpt lat="46.24826" lon="6.77902">
        <ele>1794</ele>
        <time>2016-07-03T14:45:07.000Z</time>
      </trkpt>
      <trkpt lat="46.24825" lon="6.77901">
        <ele>1794</ele>
        <time>2016-07-03T14:45:08.000Z</time>
      </trkpt>
      <trkpt lat="46.24823" lon="6.77889">
        <ele>1791</ele>
        <time>2016-07-03T14:45:17.000Z</time>
      </trkpt>
      <trkpt lat="46.24823" lon="6.77888">
        <ele>1792</ele>
        <time>2016-07-03T14:45:18.000Z</time>
      </trkpt>
      <trkpt lat="46.24826" lon="6.77875">
        <ele>1793</ele>
        <time>2016-07-03T14:45:27.000Z</time>
      </trkpt>
      <trkpt lat="46.24826" lon="6.77874">
        <ele>1793</ele>
        <time>2016-07-03T14:45:28.000Z</time>
      </trkpt>
      <trkpt lat="46.24821" lon="6.77863">
        <ele>1789</ele>
        <time>2016-07-03T14:45:36.000Z</time>
      </trkpt>
      <trkpt lat="46.24821" lon="6.77862">
        <ele>1789</ele>
        <time>2016-07-03T14:45:37.000Z</time>
      </trkpt>
      <trkpt lat="46.24818" lon="6.77851">
        <ele>1786</ele>
        <time>2016-07-03T14:45:44.000Z</time>
      </trkpt>
      <trkpt lat="46.24817" lon="6.7785">
        <ele>1785</ele>
        <time>2016-07-03T14:45:45.000Z</time>
      </trkpt>
      <trkpt lat="46.24814" lon="6.77839">
        <ele>1784</ele>
        <time>2016-07-03T14:45:53.000Z</time>
      </trkpt>
      <trkpt lat="46.24814" lon="6.77837">
        <ele>1784</ele>
        <time>2016-07-03T14:45:54.000Z</time>
      </trkpt>
      <trkpt lat="46.24809" lon="6.77827">
        <ele>1783</ele>
        <time>2016-07-03T14:46:02.000Z</time>
      </trkpt>
      <trkpt lat="46.24808" lon="6.77826">
        <ele>1783</ele>
        <time>2016-07-03T14:46:03.000Z</time>
      </trkpt>
      <trkpt lat="46.24805" lon="6.77814">
        <ele>1780</ele>
        <time>2016-07-03T14:46:09.000Z</time>
      </trkpt>
      <trkpt lat="46.24804" lon="6.77812">
        <ele>1780</ele>
        <time>2016-07-03T14:46:10.000Z</time>
      </trkpt>
      <trkpt lat="46.24798" lon="6.77803">
        <ele>1780</ele>
        <time>2016-07-03T14:46:19.000Z</time>
      </trkpt>
      <trkpt lat="46.24797" lon="6.77801">
        <ele>1780</ele>
        <time>2016-07-03T14:46:20.000Z</time>
      </trkpt>
      <trkpt lat="46.24791" lon="6.77792">
        <ele>1781</ele>
        <time>2016-07-03T14:46:27.000Z</time>
      </trkpt>
      <trkpt lat="46.24791" lon="6.77791">
        <ele>1780</ele>
        <time>2016-07-03T14:46:28.000Z</time>
      </trkpt>
      <trkpt lat="46.24784" lon="6.77784">
        <ele>1779</ele>
        <time>2016-07-03T14:46:34.000Z</time>
      </trkpt>
      <trkpt lat="46.24783" lon="6.77783">
        <ele>1778</ele>
        <time>2016-07-03T14:46:35.000Z</time>
      </trkpt>
      <trkpt lat="46.24777" lon="6.77776">
        <ele>1778</ele>
        <time>2016-07-03T14:46:42.000Z</time>
      </trkpt>
      <trkpt lat="46.24776" lon="6.77774">
        <ele>1778</ele>
        <time>2016-07-03T14:46:43.000Z</time>
      </trkpt>
      <trkpt lat="46.24771" lon="6.77765">
        <ele>1779</ele>
        <time>2016-07-03T14:46:49.000Z</time>
      </trkpt>
      <trkpt lat="46.2477" lon="6.77764">
        <ele>1779</ele>
        <time>2016-07-03T14:46:50.000Z</time>
      </trkpt>
      <trkpt lat="46.24764" lon="6.77756">
        <ele>1778</ele>
        <time>2016-07-03T14:47:40.000Z</time>
      </trkpt>
      <trkpt lat="46.24763" lon="6.77755">
        <ele>1780</ele>
        <time>2016-07-03T14:47:41.000Z</time>
      </trkpt>
      <trkpt lat="46.24759" lon="6.77745">
        <ele>1778</ele>
        <time>2016-07-03T14:47:46.000Z</time>
      </trkpt>
      <trkpt lat="46.24759" lon="6.77743">
        <ele>1779</ele>
        <time>2016-07-03T14:47:47.000Z</time>
      </trkpt>
      <trkpt lat="46.24754" lon="6.77734">
        <ele>1777</ele>
        <time>2016-07-03T14:48:02.000Z</time>
      </trkpt>
      <trkpt lat="46.24754" lon="6.77731">
        <ele>1778</ele>
        <time>2016-07-03T14:48:03.000Z</time>
      </trkpt>
      <trkpt lat="46.24749" lon="6.77721">
        <ele>1777</ele>
        <time>2016-07-03T14:48:10.000Z</time>
      </trkpt>
      <trkpt lat="46.24748" lon="6.7772">
        <ele>1777</ele>
        <time>2016-07-03T14:48:11.000Z</time>
      </trkpt>
      <trkpt lat="46.24744" lon="6.77711">
        <ele>1778</ele>
        <time>2016-07-03T14:48:18.000Z</time>
      </trkpt>
      <trkpt lat="46.24742" lon="6.7771">
        <ele>1778</ele>
        <time>2016-07-03T14:48:19.000Z</time>
      </trkpt>
      <trkpt lat="46.24739" lon="6.777">
        <ele>1780</ele>
        <time>2016-07-03T14:48:28.000Z</time>
      </trkpt>
      <trkpt lat="46.24737" lon="6.77698">
        <ele>1779</ele>
        <time>2016-07-03T14:48:29.000Z</time>
      </trkpt>
      <trkpt lat="46.24731" lon="6.77689">
        <ele>1779</ele>
        <time>2016-07-03T14:48:38.000Z</time>
      </trkpt>
      <trkpt lat="46.24731" lon="6.77688">
        <ele>1780</ele>
        <time>2016-07-03T14:48:39.000Z</time>
      </trkpt>
      <trkpt lat="46.24725" lon="6.7768">
        <ele>1779</ele>
        <time>2016-07-03T14:48:47.000Z</time>
      </trkpt>
      <trkpt lat="46.24724" lon="6.77678">
        <ele>1778</ele>
        <time>2016-07-03T14:48:48.000Z</time>
      </trkpt>
      <trkpt lat="46.24718" lon="6.77669">
        <ele>1781</ele>
        <time>2016-07-03T14:48:55.000Z</time>
      </trkpt>
      <trkpt lat="46.24717" lon="6.7767">
        <ele>1780</ele>
        <time>2016-07-03T14:48:56.000Z</time>
      </trkpt>
      <trkpt lat="46.24709" lon="6.77664">
        <ele>1781</ele>
        <time>2016-07-03T14:49:05.000Z</time>
      </trkpt>
      <trkpt lat="46.24708" lon="6.77663">
        <ele>1781</ele>
        <time>2016-07-03T14:49:06.000Z</time>
      </trkpt>
      <trkpt lat="46.247" lon="6.7766">
        <ele>1782</ele>
        <time>2016-07-03T14:49:16.000Z</time>
      </trkpt>
      <trkpt lat="46.24699" lon="6.7766">
        <ele>1783</ele>
        <time>2016-07-03T14:49:17.000Z</time>
      </trkpt>
      <trkpt lat="46.24691" lon="6.77659">
        <ele>1781</ele>
        <time>2016-07-03T14:49:24.000Z</time>
      </trkpt>
      <trkpt lat="46.24689" lon="6.77659">
        <ele>1781</ele>
        <time>2016-07-03T14:49:25.000Z</time>
      </trkpt>
      <trkpt lat="46.24682" lon="6.77662">
        <ele>1784</ele>
        <time>2016-07-03T14:49:31.000Z</time>
      </trkpt>
      <trkpt lat="46.2468" lon="6.77662">
        <ele>1784</ele>
        <time>2016-07-03T14:49:32.000Z</time>
      </trkpt>
      <trkpt lat="46.24672" lon="6.77667">
        <ele>1784</ele>
        <time>2016-07-03T14:49:40.000Z</time>
      </trkpt>
      <trkpt lat="46.24672" lon="6.77667">
        <ele>1784</ele>
        <time>2016-07-03T14:49:41.000Z</time>
      </trkpt>
      <trkpt lat="46.24664" lon="6.77675">
        <ele>1784</ele>
        <time>2016-07-03T14:49:50.000Z</time>
      </trkpt>
      <trkpt lat="46.24664" lon="6.77676">
        <ele>1786</ele>
        <time>2016-07-03T14:49:51.000Z</time>
      </trkpt>
      <trkpt lat="46.24657" lon="6.77682">
        <ele>1787</ele>
        <time>2016-07-03T14:50:00.000Z</time>
      </trkpt>
      <trkpt lat="46.24656" lon="6.77683">
        <ele>1787</ele>
        <time>2016-07-03T14:50:01.000Z</time>
      </trkpt>
      <trkpt lat="46.24648" lon="6.77688">
        <ele>1787</ele>
        <time>2016-07-03T14:50:08.000Z</time>
      </trkpt>
      <trkpt lat="46.24647" lon="6.77689">
        <ele>1786</ele>
        <time>2016-07-03T14:50:09.000Z</time>
      </trkpt>
      <trkpt lat="46.24639" lon="6.77692">
        <ele>1785</ele>
        <time>2016-07-03T14:50:17.000Z</time>
      </trkpt>
      <trkpt lat="46.24638" lon="6.77692">
        <ele>1785</ele>
        <time>2016-07-03T14:50:18.000Z</time>
      </trkpt>
      <trkpt lat="46.2463" lon="6.77696">
        <ele>1787</ele>
        <time>2016-07-03T14:50:25.000Z</time>
      </trkpt>
      <trkpt lat="46.24629" lon="6.77697">
        <ele>1787</ele>
        <time>2016-07-03T14:50:26.000Z</time>
      </trkpt>
      <trkpt lat="46.24622" lon="6.77704">
        <ele>1784</ele>
        <time>2016-07-03T14:50:33.000Z</time>
      </trkpt>
      <trkpt lat="46.24621" lon="6.77705">
        <ele>1784</ele>
        <time>2016-07-03T14:50:34.000Z</time>
      </trkpt>
      <trkpt lat="46.24613" lon="6.7771">
        <ele>1783</ele>
        <time>2016-07-03T14:50:42.000Z</time>
      </trkpt>
      <trkpt lat="46.24612" lon="6.77711">
        <ele>1783</ele>
        <time>2016-07-03T14:50:43.000Z</time>
      </trkpt>
      <trkpt lat="46.24605" lon="6.77716">
        <ele>1782</ele>
        <time>2016-07-03T14:50:49.000Z</time>
      </trkpt>
      <trkpt lat="46.24604" lon="6.77716">
        <ele>1781</ele>
        <time>2016-07-03T14:50:50.000Z</time>
      </trkpt>
      <trkpt lat="46.24596" lon="6.77721">
        <ele>1783</ele>
        <time>2016-07-03T14:50:57.000Z</time>
      </trkpt>
      <trkpt lat="46.24594" lon="6.77721">
        <ele>1782</ele>
        <time>2016-07-03T14:50:58.000Z</time>
      </trkpt>
      <trkpt lat="46.24587" lon="6.77727">
        <ele>1780</ele>
        <time>2016-07-03T14:51:07.000Z</time>
      </trkpt>
      <trkpt lat="46.24585" lon="6.77728">
        <ele>1782</ele>
        <time>2016-07-03T14:51:08.000Z</time>
      </trkpt>
      <trkpt lat="46.24577" lon="6.77732">
        <ele>1776</ele>
        <time>2016-07-03T14:51:15.000Z</time>
      </trkpt>
      <trkpt lat="46.24575" lon="6.77732">
        <ele>1775</ele>
        <time>2016-07-03T14:51:16.000Z</time>
      </trkpt>
      <trkpt lat="46.24569" lon="6.77736">
        <ele>1770</ele>
        <time>2016-07-03T14:51:34.000Z</time>
      </trkpt>
      <trkpt lat="46.24566" lon="6.77735">
        <ele>1771</ele>
        <time>2016-07-03T14:51:35.000Z</time>
      </trkpt>
      <trkpt lat="46.24558" lon="6.77737">
        <ele>1773</ele>
        <time>2016-07-03T14:51:43.000Z</time>
      </trkpt>
      <trkpt lat="46.24557" lon="6.77737">
        <ele>1773</ele>
        <time>2016-07-03T14:51:44.000Z</time>
      </trkpt>
      <trkpt lat="46.24549" lon="6.77743">
        <ele>1771</ele>
        <time>2016-07-03T14:51:51.000Z</time>
      </trkpt>
      <trkpt lat="46.24548" lon="6.77743">
        <ele>1771</ele>
        <time>2016-07-03T14:51:52.000Z</time>
      </trkpt>
      <trkpt lat="46.24542" lon="6.77752">
        <ele>1773</ele>
        <time>2016-07-03T14:52:21.000Z</time>
      </trkpt>
      <trkpt lat="46.24541" lon="6.77752">
        <ele>1773</ele>
        <time>2016-07-03T14:52:22.000Z</time>
      </trkpt>
      <trkpt lat="46.24535" lon="6.77758">
        <ele>1774</ele>
        <time>2016-07-03T14:54:54.000Z</time>
      </trkpt>
      <trkpt lat="46.24534" lon="6.77759">
        <ele>1774</ele>
        <time>2016-07-03T14:54:55.000Z</time>
      </trkpt>
      <trkpt lat="46.24536" lon="6.77761">
        <ele>1773</ele>
        <time>2016-07-03T14:55:09.000Z</time>
      </trkpt>
      <trkpt lat="46.24535" lon="6.77761">
        <ele>1773</ele>
        <time>2016-07-03T14:55:10.000Z</time>
      </trkpt>
      <trkpt lat="46.24531" lon="6.77767">
        <ele>1774</ele>
        <time>2016-07-03T14:55:42.000Z</time>
      </trkpt>
      <trkpt lat="46.24531" lon="6.77767">
        <ele>1774</ele>
        <time>2016-07-03T14:55:43.000Z</time>
      </trkpt>
      <trkpt lat="46.24534" lon="6.77767">
        <ele>1774</ele>
        <time>2016-07-03T14:56:12.000Z</time>
      </trkpt>
      <trkpt lat="46.24534" lon="6.77767">
        <ele>1774</ele>
        <time>2016-07-03T14:56:13.000Z</time>
      </trkpt>
      <trkpt lat="46.24533" lon="6.77768">
        <ele>1773</ele>
        <time>2016-07-03T14:56:44.000Z</time>
      </trkpt>
      <trkpt lat="46.24533" lon="6.77768">
        <ele>1773</ele>
        <time>2016-07-03T14:56:45.000Z</time>
      </trkpt>
      <trkpt lat="46.2453" lon="6.77765">
        <ele>1771</ele>
        <time>2016-07-03T14:57:43.000Z</time>
      </trkpt>
      <trkpt lat="46.2453" lon="6.77765">
        <ele>1771</ele>
        <time>2016-07-03T14:57:44.000Z</time>
      </trkpt>
      <trkpt lat="46.24529" lon="6.77761">
        <ele>1770</ele>
        <time>2016-07-03T14:59:04.000Z</time>
      </trkpt>
      <trkpt lat="46.24529" lon="6.77761">
        <ele>1770</ele>
        <time>2016-07-03T14:59:05.000Z</time>
      </trkpt>
      <trkpt lat="46.24529" lon="6.77761">
        <ele>1770</ele>
        <time>2016-07-03T14:59:06.000Z</time>
      </trkpt>
      <trkpt lat="46.24528" lon="6.77767">
        <ele>1776</ele>
        <time>2016-07-03T15:00:15.000Z</time>
      </trkpt>
      <trkpt lat="46.24528" lon="6.77767">
        <ele>1776</ele>
        <time>2016-07-03T15:00:16.000Z</time>
      </trkpt>
      <trkpt lat="46.24529" lon="6.77768">
        <ele>1777</ele>
        <time>2016-07-03T15:00:25.000Z</time>
      </trkpt>
      <trkpt lat="46.24529" lon="6.77768">
        <ele>1777</ele>
        <time>2016-07-03T15:00:26.000Z</time>
      </trkpt>
      <trkpt lat="46.2453" lon="6.77771">
        <ele>1778</ele>
        <time>2016-07-03T15:00:56.000Z</time>
      </trkpt>
      <trkpt lat="46.2453" lon="6.77772">
        <ele>1778</ele>
        <time>2016-07-03T15:00:57.000Z</time>
      </trkpt>
      <trkpt lat="46.24531" lon="6.77773">
        <ele>1781</ele>
        <time>2016-07-03T15:01:50.000Z</time>
      </trkpt>
      <trkpt lat="46.24531" lon="6.77772">
        <ele>1781</ele>
        <time>2016-07-03T15:01:51.000Z</time>
      </trkpt>
      <trkpt lat="46.24531" lon="6.77771">
        <ele>1781</ele>
        <time>2016-07-03T15:01:52.000Z</time>
      </trkpt>
      <trkpt lat="46.24532" lon="6.77771">
        <ele>1780</ele>
        <time>2016-07-03T15:01:53.000Z</time>
      </trkpt>
      <trkpt lat="46.24531" lon="6.77771">
        <ele>1779</ele>
        <time>2016-07-03T15:01:58.000Z</time>
      </trkpt>
      <trkpt lat="46.24532" lon="6.77771">
        <ele>1779</ele>
        <time>2016-07-03T15:01:59.000Z</time>
      </trkpt>
      <trkpt lat="46.24536" lon="6.7776">
        <ele>1776</ele>
        <time>2016-07-03T15:03:07.000Z</time>
      </trkpt>
      <trkpt lat="46.24536" lon="6.77759">
        <ele>1776</ele>
        <time>2016-07-03T15:03:08.000Z</time>
      </trkpt>
      <trkpt lat="46.24539" lon="6.77755">
        <ele>1778</ele>
        <time>2016-07-03T15:03:27.000Z</time>
      </trkpt>
      <trkpt lat="46.24539" lon="6.77755">
        <ele>1778</ele>
        <time>2016-07-03T15:03:28.000Z</time>
      </trkpt>
      <trkpt lat="46.2454" lon="6.77754">
        <ele>1779</ele>
        <time>2016-07-03T15:03:29.000Z</time>
      </trkpt>
      <trkpt lat="46.2454" lon="6.77754">
        <ele>1780</ele>
        <time>2016-07-03T15:04:05.000Z</time>
      </trkpt>
      <trkpt lat="46.2454" lon="6.77754">
        <ele>1780</ele>
        <time>2016-07-03T15:04:06.000Z</time>
      </trkpt>
      <trkpt lat="46.24538" lon="6.77753">
        <ele>1780</ele>
        <time>2016-07-03T15:04:22.000Z</time>
      </trkpt>
      <trkpt lat="46.24538" lon="6.77753">
        <ele>1780</ele>
        <time>2016-07-03T15:04:23.000Z</time>
      </trkpt>
      <trkpt lat="46.24538" lon="6.77752">
        <ele>1779</ele>
        <time>2016-07-03T15:04:24.000Z</time>
      </trkpt>
      <trkpt lat="46.24538" lon="6.77752">
        <ele>1779</ele>
        <time>2016-07-03T15:04:25.000Z</time>
      </trkpt>
      <trkpt lat="46.24538" lon="6.77752">
        <ele>1779</ele>
        <time>2016-07-03T15:04:26.000Z</time>
      </trkpt>
      <trkpt lat="46.2453" lon="6.77759">
        <ele>1777</ele>
        <time>2016-07-03T15:04:37.000Z</time>
      </trkpt>
      <trkpt lat="46.2453" lon="6.7776">
        <ele>1777</ele>
        <time>2016-07-03T15:04:38.000Z</time>
      </trkpt>
      <trkpt lat="46.24522" lon="6.77765">
        <ele>1777</ele>
        <time>2016-07-03T15:04:46.000Z</time>
      </trkpt>
      <trkpt lat="46.24522" lon="6.77766">
        <ele>1777</ele>
        <time>2016-07-03T15:04:47.000Z</time>
      </trkpt>
      <trkpt lat="46.24515" lon="6.77773">
        <ele>1776</ele>
        <time>2016-07-03T15:04:55.000Z</time>
      </trkpt>
      <trkpt lat="46.24515" lon="6.77774">
        <ele>1776</ele>
        <time>2016-07-03T15:04:56.000Z</time>
      </trkpt>
      <trkpt lat="46.24508" lon="6.7778">
        <ele>1776</ele>
        <time>2016-07-03T15:05:04.000Z</time>
      </trkpt>
      <trkpt lat="46.24507" lon="6.77781">
        <ele>1776</ele>
        <time>2016-07-03T15:05:05.000Z</time>
      </trkpt>
      <trkpt lat="46.24499" lon="6.77787">
        <ele>1776</ele>
        <time>2016-07-03T15:05:12.000Z</time>
      </trkpt>
      <trkpt lat="46.24499" lon="6.77789">
        <ele>1775</ele>
        <time>2016-07-03T15:05:13.000Z</time>
      </trkpt>
      <trkpt lat="46.24491" lon="6.77793">
        <ele>1773</ele>
        <time>2016-07-03T15:05:21.000Z</time>
      </trkpt>
      <trkpt lat="46.24489" lon="6.77792">
        <ele>1772</ele>
        <time>2016-07-03T15:05:22.000Z</time>
      </trkpt>
      <trkpt lat="46.24481" lon="6.77797">
        <ele>1771</ele>
        <time>2016-07-03T15:05:29.000Z</time>
      </trkpt>
      <trkpt lat="46.2448" lon="6.77797">
        <ele>1769</ele>
        <time>2016-07-03T15:05:30.000Z</time>
      </trkpt>
      <trkpt lat="46.24471" lon="6.77801">
        <ele>1771</ele>
        <time>2016-07-03T15:05:38.000Z</time>
      </trkpt>
      <trkpt lat="46.2447" lon="6.77802">
        <ele>1770</ele>
        <time>2016-07-03T15:05:39.000Z</time>
      </trkpt>
      <trkpt lat="46.24463" lon="6.77807">
        <ele>1768</ele>
        <time>2016-07-03T15:05:47.000Z</time>
      </trkpt>
      <trkpt lat="46.24461" lon="6.77808">
        <ele>1768</ele>
        <time>2016-07-03T15:05:48.000Z</time>
      </trkpt>
      <trkpt lat="46.24453" lon="6.77812">
        <ele>1765</ele>
        <time>2016-07-03T15:05:56.000Z</time>
      </trkpt>
      <trkpt lat="46.24452" lon="6.77812">
        <ele>1765</ele>
        <time>2016-07-03T15:05:57.000Z</time>
      </trkpt>
      <trkpt lat="46.24443" lon="6.77815">
        <ele>1768</ele>
        <time>2016-07-03T15:06:04.000Z</time>
      </trkpt>
      <trkpt lat="46.24442" lon="6.77815">
        <ele>1767</ele>
        <time>2016-07-03T15:06:05.000Z</time>
      </trkpt>
      <trkpt lat="46.24434" lon="6.77817">
        <ele>1766</ele>
        <time>2016-07-03T15:06:12.000Z</time>
      </trkpt>
      <trkpt lat="46.24433" lon="6.77818">
        <ele>1766</ele>
        <time>2016-07-03T15:06:13.000Z</time>
      </trkpt>
      <trkpt lat="46.24425" lon="6.7782">
        <ele>1765</ele>
        <time>2016-07-03T15:06:20.000Z</time>
      </trkpt>
      <trkpt lat="46.24424" lon="6.77821">
        <ele>1765</ele>
        <time>2016-07-03T15:06:21.000Z</time>
      </trkpt>
      <trkpt lat="46.24416" lon="6.77826">
        <ele>1766</ele>
        <time>2016-07-03T15:06:28.000Z</time>
      </trkpt>
      <trkpt lat="46.24415" lon="6.77827">
        <ele>1766</ele>
        <time>2016-07-03T15:06:29.000Z</time>
      </trkpt>
      <trkpt lat="46.24407" lon="6.77833">
        <ele>1766</ele>
        <time>2016-07-03T15:06:36.000Z</time>
      </trkpt>
      <trkpt lat="46.24406" lon="6.77834">
        <ele>1766</ele>
        <time>2016-07-03T15:06:37.000Z</time>
      </trkpt>
      <trkpt lat="46.24399" lon="6.77838">
        <ele>1766</ele>
        <time>2016-07-03T15:06:43.000Z</time>
      </trkpt>
      <trkpt lat="46.24397" lon="6.77838">
        <ele>1765</ele>
        <time>2016-07-03T15:06:44.000Z</time>
      </trkpt>
      <trkpt lat="46.2439" lon="6.77843">
        <ele>1764</ele>
        <time>2016-07-03T15:06:49.000Z</time>
      </trkpt>
      <trkpt lat="46.24389" lon="6.77844">
        <ele>1764</ele>
        <time>2016-07-03T15:06:50.000Z</time>
      </trkpt>
      <trkpt lat="46.24382" lon="6.77853">
        <ele>1764</ele>
        <time>2016-07-03T15:06:56.000Z</time>
      </trkpt>
      <trkpt lat="46.24382" lon="6.77854">
        <ele>1764</ele>
        <time>2016-07-03T15:06:57.000Z</time>
      </trkpt>
      <trkpt lat="46.24374" lon="6.7786">
        <ele>1764</ele>
        <time>2016-07-03T15:07:04.000Z</time>
      </trkpt>
      <trkpt lat="46.24374" lon="6.77861">
        <ele>1764</ele>
        <time>2016-07-03T15:07:05.000Z</time>
      </trkpt>
      <trkpt lat="46.24368" lon="6.7787">
        <ele>1763</ele>
        <time>2016-07-03T15:07:12.000Z</time>
      </trkpt>
      <trkpt lat="46.24367" lon="6.77871">
        <ele>1765</ele>
        <time>2016-07-03T15:07:13.000Z</time>
      </trkpt>
      <trkpt lat="46.2436" lon="6.77878">
        <ele>1765</ele>
        <time>2016-07-03T15:07:20.000Z</time>
      </trkpt>
      <trkpt lat="46.2436" lon="6.7788">
        <ele>1766</ele>
        <time>2016-07-03T15:07:21.000Z</time>
      </trkpt>
      <trkpt lat="46.24352" lon="6.77883">
        <ele>1765</ele>
        <time>2016-07-03T15:07:28.000Z</time>
      </trkpt>
      <trkpt lat="46.24351" lon="6.77884">
        <ele>1764</ele>
        <time>2016-07-03T15:07:29.000Z</time>
      </trkpt>
      <trkpt lat="46.24343" lon="6.77888">
        <ele>1763</ele>
        <time>2016-07-03T15:07:37.000Z</time>
      </trkpt>
      <trkpt lat="46.24342" lon="6.77889">
        <ele>1762</ele>
        <time>2016-07-03T15:07:38.000Z</time>
      </trkpt>
      <trkpt lat="46.24335" lon="6.77898">
        <ele>1765</ele>
        <time>2016-07-03T15:07:59.000Z</time>
      </trkpt>
      <trkpt lat="46.24334" lon="6.77898">
        <ele>1764</ele>
        <time>2016-07-03T15:08:00.000Z</time>
      </trkpt>
      <trkpt lat="46.24329" lon="6.77904">
        <ele>1766</ele>
        <time>2016-07-03T15:08:06.000Z</time>
      </trkpt>
      <trkpt lat="46.24328" lon="6.77907">
        <ele>1766</ele>
        <time>2016-07-03T15:08:07.000Z</time>
      </trkpt>
      <trkpt lat="46.2432" lon="6.77913">
        <ele>1767</ele>
        <time>2016-07-03T15:08:15.000Z</time>
      </trkpt>
      <trkpt lat="46.2432" lon="6.77913">
        <ele>1767</ele>
        <time>2016-07-03T15:08:16.000Z</time>
      </trkpt>
      <trkpt lat="46.24312" lon="6.77918">
        <ele>1774</ele>
        <time>2016-07-03T15:08:24.000Z</time>
      </trkpt>
      <trkpt lat="46.24311" lon="6.77918">
        <ele>1774</ele>
        <time>2016-07-03T15:08:25.000Z</time>
      </trkpt>
      <trkpt lat="46.24305" lon="6.77924">
        <ele>1770</ele>
        <time>2016-07-03T15:08:33.000Z</time>
      </trkpt>
      <trkpt lat="46.24304" lon="6.77926">
        <ele>1770</ele>
        <time>2016-07-03T15:08:34.000Z</time>
      </trkpt>
      <trkpt lat="46.24296" lon="6.77927">
        <ele>1769</ele>
        <time>2016-07-03T15:08:39.000Z</time>
      </trkpt>
      <trkpt lat="46.24294" lon="6.77929">
        <ele>1768</ele>
        <time>2016-07-03T15:08:40.000Z</time>
      </trkpt>
      <trkpt lat="46.24288" lon="6.77938">
        <ele>1767</ele>
        <time>2016-07-03T15:08:48.000Z</time>
      </trkpt>
      <trkpt lat="46.24286" lon="6.7794">
        <ele>1767</ele>
        <time>2016-07-03T15:08:49.000Z</time>
      </trkpt>
      <trkpt lat="46.24278" lon="6.77942">
        <ele>1768</ele>
        <time>2016-07-03T15:08:58.000Z</time>
      </trkpt>
      <trkpt lat="46.24277" lon="6.77942">
        <ele>1769</ele>
        <time>2016-07-03T15:08:59.000Z</time>
      </trkpt>
      <trkpt lat="46.2427" lon="6.77947">
        <ele>1767</ele>
        <time>2016-07-03T15:09:05.000Z</time>
      </trkpt>
      <trkpt lat="46.24268" lon="6.77947">
        <ele>1767</ele>
        <time>2016-07-03T15:09:06.000Z</time>
      </trkpt>
      <trkpt lat="46.2426" lon="6.77948">
        <ele>1766</ele>
        <time>2016-07-03T15:09:12.000Z</time>
      </trkpt>
      <trkpt lat="46.24258" lon="6.7795">
        <ele>1766</ele>
        <time>2016-07-03T15:09:13.000Z</time>
      </trkpt>
      <trkpt lat="46.24251" lon="6.77952">
        <ele>1764</ele>
        <time>2016-07-03T15:09:20.000Z</time>
      </trkpt>
      <trkpt lat="46.24249" lon="6.77952">
        <ele>1766</ele>
        <time>2016-07-03T15:09:21.000Z</time>
      </trkpt>
      <trkpt lat="46.24241" lon="6.77955">
        <ele>1762</ele>
        <time>2016-07-03T15:09:27.000Z</time>
      </trkpt>
      <trkpt lat="46.2424" lon="6.77956">
        <ele>1761</ele>
        <time>2016-07-03T15:09:28.000Z</time>
      </trkpt>
      <trkpt lat="46.24233" lon="6.77962">
        <ele>1761</ele>
        <time>2016-07-03T15:09:35.000Z</time>
      </trkpt>
      <trkpt lat="46.24232" lon="6.77964">
        <ele>1759</ele>
        <time>2016-07-03T15:09:36.000Z</time>
      </trkpt>
      <trkpt lat="46.24224" lon="6.77966">
        <ele>1759</ele>
        <time>2016-07-03T15:09:43.000Z</time>
      </trkpt>
      <trkpt lat="46.24223" lon="6.77965">
        <ele>1761</ele>
        <time>2016-07-03T15:09:44.000Z</time>
      </trkpt>
      <trkpt lat="46.24214" lon="6.77969">
        <ele>1755</ele>
        <time>2016-07-03T15:09:51.000Z</time>
      </trkpt>
      <trkpt lat="46.24212" lon="6.7797">
        <ele>1756</ele>
        <time>2016-07-03T15:09:52.000Z</time>
      </trkpt>
      <trkpt lat="46.24205" lon="6.77976">
        <ele>1758</ele>
        <time>2016-07-03T15:09:59.000Z</time>
      </trkpt>
      <trkpt lat="46.24204" lon="6.77977">
        <ele>1758</ele>
        <time>2016-07-03T15:10:00.000Z</time>
      </trkpt>
      <trkpt lat="46.24198" lon="6.77983">
        <ele>1764</ele>
        <time>2016-07-03T15:10:06.000Z</time>
      </trkpt>
      <trkpt lat="46.24197" lon="6.77986">
        <ele>1763</ele>
        <time>2016-07-03T15:10:07.000Z</time>
      </trkpt>
      <trkpt lat="46.24189" lon="6.77989">
        <ele>1766</ele>
        <time>2016-07-03T15:10:14.000Z</time>
      </trkpt>
      <trkpt lat="46.24188" lon="6.77991">
        <ele>1766</ele>
        <time>2016-07-03T15:10:15.000Z</time>
      </trkpt>
      <trkpt lat="46.24182" lon="6.77998">
        <ele>1762</ele>
        <time>2016-07-03T15:10:23.000Z</time>
      </trkpt>
      <trkpt lat="46.24182" lon="6.78001">
        <ele>1761</ele>
        <time>2016-07-03T15:10:24.000Z</time>
      </trkpt>
      <trkpt lat="46.24174" lon="6.78005">
        <ele>1762</ele>
        <time>2016-07-03T15:10:28.000Z</time>
      </trkpt>
      <trkpt lat="46.24173" lon="6.78006">
        <ele>1763</ele>
        <time>2016-07-03T15:10:29.000Z</time>
      </trkpt>
      <trkpt lat="46.24166" lon="6.78014">
        <ele>1763</ele>
        <time>2016-07-03T15:10:35.000Z</time>
      </trkpt>
      <trkpt lat="46.24166" lon="6.78015">
        <ele>1764</ele>
        <time>2016-07-03T15:10:36.000Z</time>
      </trkpt>
      <trkpt lat="46.24159" lon="6.78022">
        <ele>1766</ele>
        <time>2016-07-03T15:10:42.000Z</time>
      </trkpt>
      <trkpt lat="46.24158" lon="6.78022">
        <ele>1767</ele>
        <time>2016-07-03T15:10:43.000Z</time>
      </trkpt>
      <trkpt lat="46.2415" lon="6.78027">
        <ele>1759</ele>
        <time>2016-07-03T15:10:52.000Z</time>
      </trkpt>
      <trkpt lat="46.24149" lon="6.78028">
        <ele>1759</ele>
        <time>2016-07-03T15:10:53.000Z</time>
      </trkpt>
      <trkpt lat="46.24142" lon="6.78036">
        <ele>1763</ele>
        <time>2016-07-03T15:11:00.000Z</time>
      </trkpt>
      <trkpt lat="46.24141" lon="6.78037">
        <ele>1764</ele>
        <time>2016-07-03T15:11:01.000Z</time>
      </trkpt>
      <trkpt lat="46.24133" lon="6.78041">
        <ele>1761</ele>
        <time>2016-07-03T15:11:08.000Z</time>
      </trkpt>
      <trkpt lat="46.24133" lon="6.78044">
        <ele>1761</ele>
        <time>2016-07-03T15:11:09.000Z</time>
      </trkpt>
      <trkpt lat="46.24127" lon="6.7805">
        <ele>1763</ele>
        <time>2016-07-03T15:11:20.000Z</time>
      </trkpt>
      <trkpt lat="46.24125" lon="6.78052">
        <ele>1766</ele>
        <time>2016-07-03T15:11:21.000Z</time>
      </trkpt>
      <trkpt lat="46.24118" lon="6.78058">
        <ele>1763</ele>
        <time>2016-07-03T15:11:26.000Z</time>
      </trkpt>
      <trkpt lat="46.24117" lon="6.78058">
        <ele>1762</ele>
        <time>2016-07-03T15:11:27.000Z</time>
      </trkpt>
      <trkpt lat="46.24109" lon="6.78062">
        <ele>1761</ele>
        <time>2016-07-03T15:11:32.000Z</time>
      </trkpt>
      <trkpt lat="46.24108" lon="6.78063">
        <ele>1760</ele>
        <time>2016-07-03T15:11:33.000Z</time>
      </trkpt>
      <trkpt lat="46.24099" lon="6.78067">
        <ele>1759</ele>
        <time>2016-07-03T15:11:40.000Z</time>
      </trkpt>
      <trkpt lat="46.24099" lon="6.78068">
        <ele>1757</ele>
        <time>2016-07-03T15:11:41.000Z</time>
      </trkpt>
      <trkpt lat="46.24091" lon="6.78072">
        <ele>1759</ele>
        <time>2016-07-03T15:11:48.000Z</time>
      </trkpt>
      <trkpt lat="46.2409" lon="6.78071">
        <ele>1757</ele>
        <time>2016-07-03T15:11:49.000Z</time>
      </trkpt>
      <trkpt lat="46.24082" lon="6.78074">
        <ele>1757</ele>
        <time>2016-07-03T15:11:54.000Z</time>
      </trkpt>
      <trkpt lat="46.2408" lon="6.78075">
        <ele>1757</ele>
        <time>2016-07-03T15:11:55.000Z</time>
      </trkpt>
      <trkpt lat="46.24074" lon="6.78078">
        <ele>1755</ele>
        <time>2016-07-03T15:12:00.000Z</time>
      </trkpt>
      <trkpt lat="46.24071" lon="6.7808">
        <ele>1755</ele>
        <time>2016-07-03T15:12:01.000Z</time>
      </trkpt>
      <trkpt lat="46.24063" lon="6.78083">
        <ele>1752</ele>
        <time>2016-07-03T15:12:08.000Z</time>
      </trkpt>
      <trkpt lat="46.24062" lon="6.78084">
        <ele>1752</ele>
        <time>2016-07-03T15:12:09.000Z</time>
      </trkpt>
      <trkpt lat="46.24054" lon="6.78089">
        <ele>1752</ele>
        <time>2016-07-03T15:12:15.000Z</time>
      </trkpt>
      <trkpt lat="46.24054" lon="6.7809">
        <ele>1751</ele>
        <time>2016-07-03T15:12:16.000Z</time>
      </trkpt>
      <trkpt lat="46.24046" lon="6.78092">
        <ele>1748</ele>
        <time>2016-07-03T15:12:24.000Z</time>
      </trkpt>
      <trkpt lat="46.24045" lon="6.78094">
        <ele>1748</ele>
        <time>2016-07-03T15:12:25.000Z</time>
      </trkpt>
      <trkpt lat="46.24036" lon="6.78095">
        <ele>1748</ele>
        <time>2016-07-03T15:12:33.000Z</time>
      </trkpt>
      <trkpt lat="46.24035" lon="6.78096">
        <ele>1748</ele>
        <time>2016-07-03T15:12:34.000Z</time>
      </trkpt>
      <trkpt lat="46.24027" lon="6.78095">
        <ele>1748</ele>
        <time>2016-07-03T15:12:41.000Z</time>
      </trkpt>
      <trkpt lat="46.24025" lon="6.78095">
        <ele>1748</ele>
        <time>2016-07-03T15:12:42.000Z</time>
      </trkpt>
      <trkpt lat="46.24017" lon="6.78093">
        <ele>1745</ele>
        <time>2016-07-03T15:12:49.000Z</time>
      </trkpt>
      <trkpt lat="46.24016" lon="6.78093">
        <ele>1746</ele>
        <time>2016-07-03T15:12:50.000Z</time>
      </trkpt>
      <trkpt lat="46.24008" lon="6.78091">
        <ele>1742</ele>
        <time>2016-07-03T15:12:57.000Z</time>
      </trkpt>
      <trkpt lat="46.24007" lon="6.7809">
        <ele>1741</ele>
        <time>2016-07-03T15:12:58.000Z</time>
      </trkpt>
      <trkpt lat="46.23999" lon="6.78087">
        <ele>1740</ele>
        <time>2016-07-03T15:13:07.000Z</time>
      </trkpt>
      <trkpt lat="46.23998" lon="6.78086">
        <ele>1741</ele>
        <time>2016-07-03T15:13:08.000Z</time>
      </trkpt>
      <trkpt lat="46.23989" lon="6.78084">
        <ele>1744</ele>
        <time>2016-07-03T15:13:14.000Z</time>
      </trkpt>
      <trkpt lat="46.23988" lon="6.78084">
        <ele>1745</ele>
        <time>2016-07-03T15:13:15.000Z</time>
      </trkpt>
      <trkpt lat="46.2398" lon="6.78082">
        <ele>1746</ele>
        <time>2016-07-03T15:13:22.000Z</time>
      </trkpt>
      <trkpt lat="46.23979" lon="6.78082">
        <ele>1746</ele>
        <time>2016-07-03T15:13:23.000Z</time>
      </trkpt>
      <trkpt lat="46.2397" lon="6.78078">
        <ele>1746</ele>
        <time>2016-07-03T15:13:31.000Z</time>
      </trkpt>
      <trkpt lat="46.2397" lon="6.78077">
        <ele>1745</ele>
        <time>2016-07-03T15:13:32.000Z</time>
      </trkpt>
      <trkpt lat="46.23962" lon="6.7807">
        <ele>1741</ele>
        <time>2016-07-03T15:13:39.000Z</time>
      </trkpt>
      <trkpt lat="46.2396" lon="6.78068">
        <ele>1741</ele>
        <time>2016-07-03T15:13:40.000Z</time>
      </trkpt>
      <trkpt lat="46.23952" lon="6.78061">
        <ele>1741</ele>
        <time>2016-07-03T15:13:46.000Z</time>
      </trkpt>
      <trkpt lat="46.23951" lon="6.7806">
        <ele>1741</ele>
        <time>2016-07-03T15:13:47.000Z</time>
      </trkpt>
      <trkpt lat="46.23944" lon="6.78056">
        <ele>1741</ele>
        <time>2016-07-03T15:13:53.000Z</time>
      </trkpt>
      <trkpt lat="46.23942" lon="6.78055">
        <ele>1741</ele>
        <time>2016-07-03T15:13:54.000Z</time>
      </trkpt>
      <trkpt lat="46.23934" lon="6.7805">
        <ele>1743</ele>
        <time>2016-07-03T15:14:02.000Z</time>
      </trkpt>
      <trkpt lat="46.23933" lon="6.78049">
        <ele>1743</ele>
        <time>2016-07-03T15:14:03.000Z</time>
      </trkpt>
      <trkpt lat="46.23925" lon="6.78047">
        <ele>1743</ele>
        <time>2016-07-03T15:14:09.000Z</time>
      </trkpt>
      <trkpt lat="46.23924" lon="6.78047">
        <ele>1744</ele>
        <time>2016-07-03T15:14:10.000Z</time>
      </trkpt>
      <trkpt lat="46.23915" lon="6.78045">
        <ele>1750</ele>
        <time>2016-07-03T15:14:17.000Z</time>
      </trkpt>
      <trkpt lat="46.23914" lon="6.78045">
        <ele>1750</ele>
        <time>2016-07-03T15:14:18.000Z</time>
      </trkpt>
      <trkpt lat="46.23905" lon="6.78044">
        <ele>1751</ele>
        <time>2016-07-03T15:14:23.000Z</time>
      </trkpt>
      <trkpt lat="46.23904" lon="6.78044">
        <ele>1752</ele>
        <time>2016-07-03T15:14:24.000Z</time>
      </trkpt>
      <trkpt lat="46.23896" lon="6.78039">
        <ele>1753</ele>
        <time>2016-07-03T15:14:31.000Z</time>
      </trkpt>
      <trkpt lat="46.23896" lon="6.78039">
        <ele>1752</ele>
        <time>2016-07-03T15:14:32.000Z</time>
      </trkpt>
      <trkpt lat="46.23888" lon="6.78033">
        <ele>1748</ele>
        <time>2016-07-03T15:14:40.000Z</time>
      </trkpt>
      <trkpt lat="46.23887" lon="6.78032">
        <ele>1748</ele>
        <time>2016-07-03T15:14:41.000Z</time>
      </trkpt>
      <trkpt lat="46.23879" lon="6.78029">
        <ele>1746</ele>
        <time>2016-07-03T15:14:50.000Z</time>
      </trkpt>
      <trkpt lat="46.23877" lon="6.78027">
        <ele>1747</ele>
        <time>2016-07-03T15:14:51.000Z</time>
      </trkpt>
      <trkpt lat="46.23869" lon="6.78025">
        <ele>1749</ele>
        <time>2016-07-03T15:14:56.000Z</time>
      </trkpt>
      <trkpt lat="46.23867" lon="6.78023">
        <ele>1749</ele>
        <time>2016-07-03T15:14:57.000Z</time>
      </trkpt>
      <trkpt lat="46.2386" lon="6.78022">
        <ele>1746</ele>
        <time>2016-07-03T15:15:04.000Z</time>
      </trkpt>
      <trkpt lat="46.23857" lon="6.78021">
        <ele>1746</ele>
        <time>2016-07-03T15:15:05.000Z</time>
      </trkpt>
      <trkpt lat="46.23849" lon="6.7802">
        <ele>1744</ele>
        <time>2016-07-03T15:15:11.000Z</time>
      </trkpt>
      <trkpt lat="46.23847" lon="6.7802">
        <ele>1743</ele>
        <time>2016-07-03T15:15:12.000Z</time>
      </trkpt>
      <trkpt lat="46.23839" lon="6.78019">
        <ele>1748</ele>
        <time>2016-07-03T15:15:20.000Z</time>
      </trkpt>
      <trkpt lat="46.23838" lon="6.78019">
        <ele>1747</ele>
        <time>2016-07-03T15:15:21.000Z</time>
      </trkpt>
      <trkpt lat="46.23831" lon="6.78014">
        <ele>1747</ele>
        <time>2016-07-03T15:15:28.000Z</time>
      </trkpt>
      <trkpt lat="46.23829" lon="6.78015">
        <ele>1748</ele>
        <time>2016-07-03T15:15:29.000Z</time>
      </trkpt>
      <trkpt lat="46.23823" lon="6.78009">
        <ele>1745</ele>
        <time>2016-07-03T15:15:34.000Z</time>
      </trkpt>
      <trkpt lat="46.23821" lon="6.78008">
        <ele>1745</ele>
        <time>2016-07-03T15:15:35.000Z</time>
      </trkpt>
      <trkpt lat="46.23813" lon="6.78005">
        <ele>1741</ele>
        <time>2016-07-03T15:15:42.000Z</time>
      </trkpt>
      <trkpt lat="46.23812" lon="6.78004">
        <ele>1740</ele>
        <time>2016-07-03T15:15:43.000Z</time>
      </trkpt>
      <trkpt lat="46.23804" lon="6.78002">
        <ele>1742</ele>
        <time>2016-07-03T15:15:50.000Z</time>
      </trkpt>
      <trkpt lat="46.23803" lon="6.78">
        <ele>1742</ele>
        <time>2016-07-03T15:15:51.000Z</time>
      </trkpt>
      <trkpt lat="46.23794" lon="6.77997">
        <ele>1745</ele>
        <time>2016-07-03T15:15:58.000Z</time>
      </trkpt>
      <trkpt lat="46.23793" lon="6.77997">
        <ele>1748</ele>
        <time>2016-07-03T15:15:59.000Z</time>
      </trkpt>
      <trkpt lat="46.23785" lon="6.77994">
        <ele>1748</ele>
        <time>2016-07-03T15:16:05.000Z</time>
      </trkpt>
      <trkpt lat="46.23782" lon="6.77993">
        <ele>1746</ele>
        <time>2016-07-03T15:16:06.000Z</time>
      </trkpt>
      <trkpt lat="46.23774" lon="6.77992">
        <ele>1742</ele>
        <time>2016-07-03T15:16:13.000Z</time>
      </trkpt>
      <trkpt lat="46.23773" lon="6.77991">
        <ele>1739</ele>
        <time>2016-07-03T15:16:14.000Z</time>
      </trkpt>
      <trkpt lat="46.23765" lon="6.7799">
        <ele>1736</ele>
        <time>2016-07-03T15:16:21.000Z</time>
      </trkpt>
      <trkpt lat="46.23763" lon="6.77989">
        <ele>1734</ele>
        <time>2016-07-03T15:16:22.000Z</time>
      </trkpt>
      <trkpt lat="46.23756" lon="6.77987">
        <ele>1733</ele>
        <time>2016-07-03T15:16:29.000Z</time>
      </trkpt>
      <trkpt lat="46.23754" lon="6.77986">
        <ele>1733</ele>
        <time>2016-07-03T15:16:30.000Z</time>
      </trkpt>
      <trkpt lat="46.23745" lon="6.77983">
        <ele>1735</ele>
        <time>2016-07-03T15:16:38.000Z</time>
      </trkpt>
      <trkpt lat="46.23744" lon="6.77981">
        <ele>1735</ele>
        <time>2016-07-03T15:16:39.000Z</time>
      </trkpt>
      <trkpt lat="46.23736" lon="6.77981">
        <ele>1733</ele>
        <time>2016-07-03T15:16:44.000Z</time>
      </trkpt>
      <trkpt lat="46.23734" lon="6.77978">
        <ele>1729</ele>
        <time>2016-07-03T15:16:45.000Z</time>
      </trkpt>
      <trkpt lat="46.23728" lon="6.77972">
        <ele>1728</ele>
        <time>2016-07-03T15:16:52.000Z</time>
      </trkpt>
      <trkpt lat="46.23726" lon="6.77969">
        <ele>1727</ele>
        <time>2016-07-03T15:16:53.000Z</time>
      </trkpt>
      <trkpt lat="46.23718" lon="6.77965">
        <ele>1729</ele>
        <time>2016-07-03T15:17:02.000Z</time>
      </trkpt>
      <trkpt lat="46.23717" lon="6.77962">
        <ele>1729</ele>
        <time>2016-07-03T15:17:03.000Z</time>
      </trkpt>
      <trkpt lat="46.23709" lon="6.77959">
        <ele>1731</ele>
        <time>2016-07-03T15:17:08.000Z</time>
      </trkpt>
      <trkpt lat="46.23709" lon="6.77958">
        <ele>1732</ele>
        <time>2016-07-03T15:17:09.000Z</time>
      </trkpt>
      <trkpt lat="46.23701" lon="6.77956">
        <ele>1735</ele>
        <time>2016-07-03T15:17:17.000Z</time>
      </trkpt>
      <trkpt lat="46.237" lon="6.77956">
        <ele>1736</ele>
        <time>2016-07-03T15:17:18.000Z</time>
      </trkpt>
      <trkpt lat="46.23693" lon="6.77958">
        <ele>1733</ele>
        <time>2016-07-03T15:17:22.000Z</time>
      </trkpt>
      <trkpt lat="46.2369" lon="6.77957">
        <ele>1732</ele>
        <time>2016-07-03T15:17:23.000Z</time>
      </trkpt>
      <trkpt lat="46.23681" lon="6.77952">
        <ele>1728</ele>
        <time>2016-07-03T15:17:30.000Z</time>
      </trkpt>
      <trkpt lat="46.2368" lon="6.77951">
        <ele>1728</ele>
        <time>2016-07-03T15:17:31.000Z</time>
      </trkpt>
      <trkpt lat="46.23672" lon="6.77949">
        <ele>1728</ele>
        <time>2016-07-03T15:17:36.000Z</time>
      </trkpt>
      <trkpt lat="46.2367" lon="6.7795">
        <ele>1728</ele>
        <time>2016-07-03T15:17:37.000Z</time>
      </trkpt>
      <trkpt lat="46.23662" lon="6.7795">
        <ele>1729</ele>
        <time>2016-07-03T15:17:45.000Z</time>
      </trkpt>
      <trkpt lat="46.23661" lon="6.77949">
        <ele>1728</ele>
        <time>2016-07-03T15:17:46.000Z</time>
      </trkpt>
      <trkpt lat="46.23653" lon="6.77948">
        <ele>1729</ele>
        <time>2016-07-03T15:17:55.000Z</time>
      </trkpt>
      <trkpt lat="46.23651" lon="6.77947">
        <ele>1730</ele>
        <time>2016-07-03T15:17:56.000Z</time>
      </trkpt>
      <trkpt lat="46.23644" lon="6.77941">
        <ele>1729</ele>
        <time>2016-07-03T15:18:01.000Z</time>
      </trkpt>
      <trkpt lat="46.23642" lon="6.77941">
        <ele>1730</ele>
        <time>2016-07-03T15:18:02.000Z</time>
      </trkpt>
      <trkpt lat="46.23635" lon="6.77936">
        <ele>1733</ele>
        <time>2016-07-03T15:18:08.000Z</time>
      </trkpt>
      <trkpt lat="46.23634" lon="6.77933">
        <ele>1730</ele>
        <time>2016-07-03T15:18:09.000Z</time>
      </trkpt>
      <trkpt lat="46.23626" lon="6.7793">
        <ele>1731</ele>
        <time>2016-07-03T15:18:15.000Z</time>
      </trkpt>
      <trkpt lat="46.23625" lon="6.77929">
        <ele>1733</ele>
        <time>2016-07-03T15:18:16.000Z</time>
      </trkpt>
      <trkpt lat="46.23617" lon="6.77923">
        <ele>1734</ele>
        <time>2016-07-03T15:18:23.000Z</time>
      </trkpt>
      <trkpt lat="46.23616" lon="6.77922">
        <ele>1732</ele>
        <time>2016-07-03T15:18:24.000Z</time>
      </trkpt>
      <trkpt lat="46.23608" lon="6.77916">
        <ele>1734</ele>
        <time>2016-07-03T15:18:31.000Z</time>
      </trkpt>
      <trkpt lat="46.23606" lon="6.77916">
        <ele>1733</ele>
        <time>2016-07-03T15:18:32.000Z</time>
      </trkpt>
      <trkpt lat="46.23598" lon="6.77912">
        <ele>1733</ele>
        <time>2016-07-03T15:18:38.000Z</time>
      </trkpt>
      <trkpt lat="46.23597" lon="6.77911">
        <ele>1734</ele>
        <time>2016-07-03T15:18:39.000Z</time>
      </trkpt>
      <trkpt lat="46.23589" lon="6.7791">
        <ele>1735</ele>
        <time>2016-07-03T15:18:49.000Z</time>
      </trkpt>
      <trkpt lat="46.23586" lon="6.77907">
        <ele>1736</ele>
        <time>2016-07-03T15:18:50.000Z</time>
      </trkpt>
      <trkpt lat="46.23578" lon="6.77904">
        <ele>1738</ele>
        <time>2016-07-03T15:18:56.000Z</time>
      </trkpt>
      <trkpt lat="46.23576" lon="6.77904">
        <ele>1737</ele>
        <time>2016-07-03T15:18:57.000Z</time>
      </trkpt>
      <trkpt lat="46.23569" lon="6.779">
        <ele>1735</ele>
        <time>2016-07-03T15:19:02.000Z</time>
      </trkpt>
      <trkpt lat="46.23568" lon="6.77898">
        <ele>1734</ele>
        <time>2016-07-03T15:19:03.000Z</time>
      </trkpt>
      <trkpt lat="46.23559" lon="6.77896">
        <ele>1739</ele>
        <time>2016-07-03T15:19:12.000Z</time>
      </trkpt>
      <trkpt lat="46.23558" lon="6.77897">
        <ele>1739</ele>
        <time>2016-07-03T15:19:13.000Z</time>
      </trkpt>
      <trkpt lat="46.2355" lon="6.77895">
        <ele>1732</ele>
        <time>2016-07-03T15:19:18.000Z</time>
      </trkpt>
      <trkpt lat="46.23549" lon="6.77895">
        <ele>1732</ele>
        <time>2016-07-03T15:19:19.000Z</time>
      </trkpt>
      <trkpt lat="46.23545" lon="6.77885">
        <ele>1732</ele>
        <time>2016-07-03T15:19:24.000Z</time>
      </trkpt>
      <trkpt lat="46.23544" lon="6.77883">
        <ele>1732</ele>
        <time>2016-07-03T15:19:25.000Z</time>
      </trkpt>
      <trkpt lat="46.23536" lon="6.77878">
        <ele>1737</ele>
        <time>2016-07-03T15:19:34.000Z</time>
      </trkpt>
      <trkpt lat="46.23534" lon="6.77876">
        <ele>1737</ele>
        <time>2016-07-03T15:19:35.000Z</time>
      </trkpt>
      <trkpt lat="46.23527" lon="6.77868">
        <ele>1734</ele>
        <time>2016-07-03T15:19:42.000Z</time>
      </trkpt>
      <trkpt lat="46.23526" lon="6.77868">
        <ele>1736</ele>
        <time>2016-07-03T15:19:43.000Z</time>
      </trkpt>
      <trkpt lat="46.2352" lon="6.77859">
        <ele>1740</ele>
        <time>2016-07-03T15:19:49.000Z</time>
      </trkpt>
      <trkpt lat="46.23519" lon="6.77858">
        <ele>1738</ele>
        <time>2016-07-03T15:19:50.000Z</time>
      </trkpt>
      <trkpt lat="46.23515" lon="6.77848">
        <ele>1736</ele>
        <time>2016-07-03T15:19:57.000Z</time>
      </trkpt>
      <trkpt lat="46.23515" lon="6.77846">
        <ele>1736</ele>
        <time>2016-07-03T15:19:58.000Z</time>
      </trkpt>
      <trkpt lat="46.23513" lon="6.77834">
        <ele>1734</ele>
        <time>2016-07-03T15:20:04.000Z</time>
      </trkpt>
      <trkpt lat="46.23512" lon="6.77833">
        <ele>1734</ele>
        <time>2016-07-03T15:20:05.000Z</time>
      </trkpt>
      <trkpt lat="46.23509" lon="6.77822">
        <ele>1738</ele>
        <time>2016-07-03T15:20:13.000Z</time>
      </trkpt>
      <trkpt lat="46.23509" lon="6.77818">
        <ele>1733</ele>
        <time>2016-07-03T15:20:14.000Z</time>
      </trkpt>
      <trkpt lat="46.23506" lon="6.77806">
        <ele>1734</ele>
        <time>2016-07-03T15:20:19.000Z</time>
      </trkpt>
      <trkpt lat="46.23506" lon="6.77804">
        <ele>1734</ele>
        <time>2016-07-03T15:20:20.000Z</time>
      </trkpt>
      <trkpt lat="46.23505" lon="6.77792">
        <ele>1733</ele>
        <time>2016-07-03T15:20:28.000Z</time>
      </trkpt>
      <trkpt lat="46.23504" lon="6.7779">
        <ele>1731</ele>
        <time>2016-07-03T15:20:29.000Z</time>
      </trkpt>
      <trkpt lat="46.23503" lon="6.77778">
        <ele>1735</ele>
        <time>2016-07-03T15:20:36.000Z</time>
      </trkpt>
      <trkpt lat="46.23502" lon="6.77777">
        <ele>1734</ele>
        <time>2016-07-03T15:20:37.000Z</time>
      </trkpt>
      <trkpt lat="46.23502" lon="6.77766">
        <ele>1737</ele>
        <time>2016-07-03T15:20:42.000Z</time>
      </trkpt>
      <trkpt lat="46.23501" lon="6.77762">
        <ele>1741</ele>
        <time>2016-07-03T15:20:43.000Z</time>
      </trkpt>
      <trkpt lat="46.23499" lon="6.77752">
        <ele>1738</ele>
        <time>2016-07-03T15:20:51.000Z</time>
      </trkpt>
      <trkpt lat="46.23498" lon="6.77749">
        <ele>1738</ele>
        <time>2016-07-03T15:20:52.000Z</time>
      </trkpt>
      <trkpt lat="46.23492" lon="6.77741">
        <ele>1736</ele>
        <time>2016-07-03T15:20:58.000Z</time>
      </trkpt>
      <trkpt lat="46.23491" lon="6.77741">
        <ele>1734</ele>
        <time>2016-07-03T15:20:59.000Z</time>
      </trkpt>
      <trkpt lat="46.23483" lon="6.77738">
        <ele>1735</ele>
        <time>2016-07-03T15:21:05.000Z</time>
      </trkpt>
      <trkpt lat="46.23482" lon="6.77738">
        <ele>1734</ele>
        <time>2016-07-03T15:21:06.000Z</time>
      </trkpt>
      <trkpt lat="46.23474" lon="6.77739">
        <ele>1735</ele>
        <time>2016-07-03T15:21:16.000Z</time>
      </trkpt>
      <trkpt lat="46.23472" lon="6.7774">
        <ele>1734</ele>
        <time>2016-07-03T15:21:17.000Z</time>
      </trkpt>
      <trkpt lat="46.23464" lon="6.77744">
        <ele>1737</ele>
        <time>2016-07-03T15:21:31.000Z</time>
      </trkpt>
      <trkpt lat="46.23461" lon="6.77747">
        <ele>1739</ele>
        <time>2016-07-03T15:21:32.000Z</time>
      </trkpt>
      <trkpt lat="46.23454" lon="6.77753">
        <ele>1738</ele>
        <time>2016-07-03T15:21:36.000Z</time>
      </trkpt>
      <trkpt lat="46.23452" lon="6.77754">
        <ele>1740</ele>
        <time>2016-07-03T15:21:37.000Z</time>
      </trkpt>
      <trkpt lat="46.23444" lon="6.77759">
        <ele>1743</ele>
        <time>2016-07-03T15:21:43.000Z</time>
      </trkpt>
      <trkpt lat="46.23443" lon="6.77758">
        <ele>1742</ele>
        <time>2016-07-03T15:21:44.000Z</time>
      </trkpt>
      <trkpt lat="46.23436" lon="6.77765">
        <ele>1738</ele>
        <time>2016-07-03T15:21:51.000Z</time>
      </trkpt>
      <trkpt lat="46.23436" lon="6.77767">
        <ele>1740</ele>
        <time>2016-07-03T15:21:52.000Z</time>
      </trkpt>
      <trkpt lat="46.23427" lon="6.77768">
        <ele>1738</ele>
        <time>2016-07-03T15:21:58.000Z</time>
      </trkpt>
      <trkpt lat="46.23427" lon="6.7777">
        <ele>1738</ele>
        <time>2016-07-03T15:21:59.000Z</time>
      </trkpt>
      <trkpt lat="46.23419" lon="6.77775">
        <ele>1736</ele>
        <time>2016-07-03T15:22:06.000Z</time>
      </trkpt>
      <trkpt lat="46.23418" lon="6.77774">
        <ele>1736</ele>
        <time>2016-07-03T15:22:07.000Z</time>
      </trkpt>
      <trkpt lat="46.2341" lon="6.77772">
        <ele>1732</ele>
        <time>2016-07-03T15:22:14.000Z</time>
      </trkpt>
      <trkpt lat="46.23408" lon="6.77772">
        <ele>1730</ele>
        <time>2016-07-03T15:22:15.000Z</time>
      </trkpt>
      <trkpt lat="46.23402" lon="6.77767">
        <ele>1729</ele>
        <time>2016-07-03T15:22:19.000Z</time>
      </trkpt>
      <trkpt lat="46.234" lon="6.77767">
        <ele>1728</ele>
        <time>2016-07-03T15:22:20.000Z</time>
      </trkpt>
      <trkpt lat="46.23393" lon="6.77758">
        <ele>1731</ele>
        <time>2016-07-03T15:22:26.000Z</time>
      </trkpt>
      <trkpt lat="46.23392" lon="6.77758">
        <ele>1730</ele>
        <time>2016-07-03T15:22:27.000Z</time>
      </trkpt>
      <trkpt lat="46.23386" lon="6.77749">
        <ele>1737</ele>
        <time>2016-07-03T15:22:35.000Z</time>
      </trkpt>
      <trkpt lat="46.23385" lon="6.7775">
        <ele>1734</ele>
        <time>2016-07-03T15:22:36.000Z</time>
      </trkpt>
      <trkpt lat="46.23384" lon="6.77738">
        <ele>1736</ele>
        <time>2016-07-03T15:22:41.000Z</time>
      </trkpt>
      <trkpt lat="46.23382" lon="6.77738">
        <ele>1734</ele>
        <time>2016-07-03T15:22:42.000Z</time>
      </trkpt>
      <trkpt lat="46.23378" lon="6.77728">
        <ele>1734</ele>
        <time>2016-07-03T15:22:50.000Z</time>
      </trkpt>
      <trkpt lat="46.23377" lon="6.77725">
        <ele>1733</ele>
        <time>2016-07-03T15:22:51.000Z</time>
      </trkpt>
      <trkpt lat="46.23372" lon="6.77715">
        <ele>1728</ele>
        <time>2016-07-03T15:22:57.000Z</time>
      </trkpt>
      <trkpt lat="46.23371" lon="6.77714">
        <ele>1727</ele>
        <time>2016-07-03T15:22:58.000Z</time>
      </trkpt>
      <trkpt lat="46.23365" lon="6.77706">
        <ele>1724</ele>
        <time>2016-07-03T15:23:06.000Z</time>
      </trkpt>
      <trkpt lat="46.23364" lon="6.77704">
        <ele>1724</ele>
        <time>2016-07-03T15:23:07.000Z</time>
      </trkpt>
      <trkpt lat="46.23357" lon="6.777">
        <ele>1727</ele>
        <time>2016-07-03T15:23:14.000Z</time>
      </trkpt>
      <trkpt lat="46.23355" lon="6.777">
        <ele>1726</ele>
        <time>2016-07-03T15:23:15.000Z</time>
      </trkpt>
      <trkpt lat="46.23348" lon="6.777">
        <ele>1725</ele>
        <time>2016-07-03T15:23:20.000Z</time>
      </trkpt>
      <trkpt lat="46.23346" lon="6.77698">
        <ele>1725</ele>
        <time>2016-07-03T15:23:21.000Z</time>
      </trkpt>
      <trkpt lat="46.23337" lon="6.77698">
        <ele>1724</ele>
        <time>2016-07-03T15:23:27.000Z</time>
      </trkpt>
      <trkpt lat="46.23336" lon="6.77697">
        <ele>1722</ele>
        <time>2016-07-03T15:23:28.000Z</time>
      </trkpt>
      <trkpt lat="46.23328" lon="6.77699">
        <ele>1719</ele>
        <time>2016-07-03T15:23:36.000Z</time>
      </trkpt>
      <trkpt lat="46.23327" lon="6.777">
        <ele>1721</ele>
        <time>2016-07-03T15:23:37.000Z</time>
      </trkpt>
      <trkpt lat="46.23319" lon="6.77701">
        <ele>1722</ele>
        <time>2016-07-03T15:23:44.000Z</time>
      </trkpt>
      <trkpt lat="46.23318" lon="6.77701">
        <ele>1722</ele>
        <time>2016-07-03T15:23:45.000Z</time>
      </trkpt>
      <trkpt lat="46.2331" lon="6.77706">
        <ele>1720</ele>
        <time>2016-07-03T15:23:53.000Z</time>
      </trkpt>
      <trkpt lat="46.23309" lon="6.77706">
        <ele>1720</ele>
        <time>2016-07-03T15:23:54.000Z</time>
      </trkpt>
      <trkpt lat="46.233" lon="6.77708">
        <ele>1721</ele>
        <time>2016-07-03T15:24:01.000Z</time>
      </trkpt>
      <trkpt lat="46.23299" lon="6.77708">
        <ele>1722</ele>
        <time>2016-07-03T15:24:02.000Z</time>
      </trkpt>
      <trkpt lat="46.23291" lon="6.77713">
        <ele>1723</ele>
        <time>2016-07-03T15:24:09.000Z</time>
      </trkpt>
      <trkpt lat="46.23289" lon="6.77713">
        <ele>1723</ele>
        <time>2016-07-03T15:24:10.000Z</time>
      </trkpt>
      <trkpt lat="46.23281" lon="6.77712">
        <ele>1712</ele>
        <time>2016-07-03T15:24:18.000Z</time>
      </trkpt>
      <trkpt lat="46.2328" lon="6.77713">
        <ele>1712</ele>
        <time>2016-07-03T15:24:19.000Z</time>
      </trkpt>
      <trkpt lat="46.23272" lon="6.77712">
        <ele>1714</ele>
        <time>2016-07-03T15:24:25.000Z</time>
      </trkpt>
      <trkpt lat="46.2327" lon="6.77711">
        <ele>1715</ele>
        <time>2016-07-03T15:24:26.000Z</time>
      </trkpt>
      <trkpt lat="46.23261" lon="6.77712">
        <ele>1716</ele>
        <time>2016-07-03T15:24:33.000Z</time>
      </trkpt>
      <trkpt lat="46.2326" lon="6.77713">
        <ele>1716</ele>
        <time>2016-07-03T15:24:34.000Z</time>
      </trkpt>
      <trkpt lat="46.23252" lon="6.77718">
        <ele>1720</ele>
        <time>2016-07-03T15:24:41.000Z</time>
      </trkpt>
      <trkpt lat="46.2325" lon="6.77719">
        <ele>1719</ele>
        <time>2016-07-03T15:24:42.000Z</time>
      </trkpt>
      <trkpt lat="46.23242" lon="6.7772">
        <ele>1714</ele>
        <time>2016-07-03T15:24:49.000Z</time>
      </trkpt>
      <trkpt lat="46.23239" lon="6.7772">
        <ele>1713</ele>
        <time>2016-07-03T15:24:50.000Z</time>
      </trkpt>
      <trkpt lat="46.23231" lon="6.77721">
        <ele>1717</ele>
        <time>2016-07-03T15:24:58.000Z</time>
      </trkpt>
      <trkpt lat="46.2323" lon="6.7772">
        <ele>1717</ele>
        <time>2016-07-03T15:24:59.000Z</time>
      </trkpt>
      <trkpt lat="46.23221" lon="6.77715">
        <ele>1717</ele>
        <time>2016-07-03T15:25:08.000Z</time>
      </trkpt>
      <trkpt lat="46.2322" lon="6.77714">
        <ele>1716</ele>
        <time>2016-07-03T15:25:09.000Z</time>
      </trkpt>
      <trkpt lat="46.23213" lon="6.77713">
        <ele>1715</ele>
        <time>2016-07-03T15:25:16.000Z</time>
      </trkpt>
      <trkpt lat="46.23211" lon="6.77713">
        <ele>1716</ele>
        <time>2016-07-03T15:25:17.000Z</time>
      </trkpt>
      <trkpt lat="46.23203" lon="6.77713">
        <ele>1718</ele>
        <time>2016-07-03T15:25:25.000Z</time>
      </trkpt>
      <trkpt lat="46.23202" lon="6.77712">
        <ele>1718</ele>
        <time>2016-07-03T15:25:26.000Z</time>
      </trkpt>
      <trkpt lat="46.23195" lon="6.77706">
        <ele>1720</ele>
        <time>2016-07-03T15:25:35.000Z</time>
      </trkpt>
      <trkpt lat="46.23194" lon="6.77704">
        <ele>1721</ele>
        <time>2016-07-03T15:25:36.000Z</time>
      </trkpt>
      <trkpt lat="46.23186" lon="6.77698">
        <ele>1720</ele>
        <time>2016-07-03T15:25:44.000Z</time>
      </trkpt>
      <trkpt lat="46.23186" lon="6.77697">
        <ele>1720</ele>
        <time>2016-07-03T15:25:45.000Z</time>
      </trkpt>
      <trkpt lat="46.23178" lon="6.77693">
        <ele>1720</ele>
        <time>2016-07-03T15:25:52.000Z</time>
      </trkpt>
      <trkpt lat="46.23177" lon="6.77693">
        <ele>1719</ele>
        <time>2016-07-03T15:25:53.000Z</time>
      </trkpt>
      <trkpt lat="46.23169" lon="6.77692">
        <ele>1719</ele>
        <time>2016-07-03T15:26:01.000Z</time>
      </trkpt>
      <trkpt lat="46.23168" lon="6.7769">
        <ele>1718</ele>
        <time>2016-07-03T15:26:02.000Z</time>
      </trkpt>
      <trkpt lat="46.2316" lon="6.77683">
        <ele>1722</ele>
        <time>2016-07-03T15:26:08.000Z</time>
      </trkpt>
      <trkpt lat="46.2316" lon="6.77683">
        <ele>1722</ele>
        <time>2016-07-03T15:26:09.000Z</time>
      </trkpt>
      <trkpt lat="46.23153" lon="6.77676">
        <ele>1718</ele>
        <time>2016-07-03T15:26:21.000Z</time>
      </trkpt>
      <trkpt lat="46.23151" lon="6.77675">
        <ele>1717</ele>
        <time>2016-07-03T15:26:22.000Z</time>
      </trkpt>
      <trkpt lat="46.23145" lon="6.77668">
        <ele>1725</ele>
        <time>2016-07-03T15:26:28.000Z</time>
      </trkpt>
      <trkpt lat="46.23144" lon="6.77667">
        <ele>1724</ele>
        <time>2016-07-03T15:26:29.000Z</time>
      </trkpt>
      <trkpt lat="46.23138" lon="6.77657">
        <ele>1725</ele>
        <time>2016-07-03T15:26:35.000Z</time>
      </trkpt>
      <trkpt lat="46.23137" lon="6.77655">
        <ele>1724</ele>
        <time>2016-07-03T15:26:36.000Z</time>
      </trkpt>
      <trkpt lat="46.23129" lon="6.77648">
        <ele>1724</ele>
        <time>2016-07-03T15:26:43.000Z</time>
      </trkpt>
      <trkpt lat="46.23128" lon="6.77647">
        <ele>1725</ele>
        <time>2016-07-03T15:26:44.000Z</time>
      </trkpt>
      <trkpt lat="46.23121" lon="6.77641">
        <ele>1726</ele>
        <time>2016-07-03T15:26:51.000Z</time>
      </trkpt>
      <trkpt lat="46.2312" lon="6.7764">
        <ele>1727</ele>
        <time>2016-07-03T15:26:52.000Z</time>
      </trkpt>
      <trkpt lat="46.23119" lon="6.77631">
        <ele>1726</ele>
        <time>2016-07-03T15:27:03.000Z</time>
      </trkpt>
      <trkpt lat="46.23119" lon="6.77627">
        <ele>1724</ele>
        <time>2016-07-03T15:27:04.000Z</time>
      </trkpt>
      <trkpt lat="46.23114" lon="6.77618">
        <ele>1726</ele>
        <time>2016-07-03T15:27:10.000Z</time>
      </trkpt>
      <trkpt lat="46.23114" lon="6.77616">
        <ele>1726</ele>
        <time>2016-07-03T15:27:11.000Z</time>
      </trkpt>
      <trkpt lat="46.23111" lon="6.77607">
        <ele>1722</ele>
        <time>2016-07-03T15:27:15.000Z</time>
      </trkpt>
      <trkpt lat="46.2311" lon="6.77602">
        <ele>1719</ele>
        <time>2016-07-03T15:27:16.000Z</time>
      </trkpt>
      <trkpt lat="46.23105" lon="6.77592">
        <ele>1720</ele>
        <time>2016-07-03T15:27:22.000Z</time>
      </trkpt>
      <trkpt lat="46.23106" lon="6.77588">
        <ele>1719</ele>
        <time>2016-07-03T15:27:23.000Z</time>
      </trkpt>
      <trkpt lat="46.23103" lon="6.77576">
        <ele>1716</ele>
        <time>2016-07-03T15:27:30.000Z</time>
      </trkpt>
      <trkpt lat="46.23102" lon="6.77575">
        <ele>1715</ele>
        <time>2016-07-03T15:27:31.000Z</time>
      </trkpt>
      <trkpt lat="46.23098" lon="6.77564">
        <ele>1713</ele>
        <time>2016-07-03T15:27:38.000Z</time>
      </trkpt>
      <trkpt lat="46.23097" lon="6.77563">
        <ele>1714</ele>
        <time>2016-07-03T15:27:39.000Z</time>
      </trkpt>
      <trkpt lat="46.23092" lon="6.77552">
        <ele>1711</ele>
        <time>2016-07-03T15:27:47.000Z</time>
      </trkpt>
      <trkpt lat="46.23091" lon="6.77552">
        <ele>1712</ele>
        <time>2016-07-03T15:27:48.000Z</time>
      </trkpt>
      <trkpt lat="46.23089" lon="6.7754">
        <ele>1713</ele>
        <time>2016-07-03T15:27:59.000Z</time>
      </trkpt>
      <trkpt lat="46.23089" lon="6.77536">
        <ele>1711</ele>
        <time>2016-07-03T15:28:00.000Z</time>
      </trkpt>
      <trkpt lat="46.23084" lon="6.77526">
        <ele>1714</ele>
        <time>2016-07-03T15:28:07.000Z</time>
      </trkpt>
      <trkpt lat="46.23083" lon="6.77523">
        <ele>1713</ele>
        <time>2016-07-03T15:28:08.000Z</time>
      </trkpt>
      <trkpt lat="46.23082" lon="6.77512">
        <ele>1715</ele>
        <time>2016-07-03T15:28:15.000Z</time>
      </trkpt>
      <trkpt lat="46.2308" lon="6.7751">
        <ele>1716</ele>
        <time>2016-07-03T15:28:16.000Z</time>
      </trkpt>
      <trkpt lat="46.23076" lon="6.77499">
        <ele>1716</ele>
        <time>2016-07-03T15:28:24.000Z</time>
      </trkpt>
      <trkpt lat="46.23075" lon="6.77499">
        <ele>1715</ele>
        <time>2016-07-03T15:28:25.000Z</time>
      </trkpt>
      <trkpt lat="46.23071" lon="6.77487">
        <ele>1714</ele>
        <time>2016-07-03T15:28:32.000Z</time>
      </trkpt>
      <trkpt lat="46.23071" lon="6.77485">
        <ele>1714</ele>
        <time>2016-07-03T15:28:33.000Z</time>
      </trkpt>
      <trkpt lat="46.23067" lon="6.77474">
        <ele>1713</ele>
        <time>2016-07-03T15:28:41.000Z</time>
      </trkpt>
      <trkpt lat="46.23066" lon="6.77472">
        <ele>1713</ele>
        <time>2016-07-03T15:28:42.000Z</time>
      </trkpt>
      <trkpt lat="46.23061" lon="6.77461">
        <ele>1715</ele>
        <time>2016-07-03T15:28:49.000Z</time>
      </trkpt>
      <trkpt lat="46.23061" lon="6.77458">
        <ele>1714</ele>
        <time>2016-07-03T15:28:50.000Z</time>
      </trkpt>
      <trkpt lat="46.23054" lon="6.7745">
        <ele>1716</ele>
        <time>2016-07-03T15:28:57.000Z</time>
      </trkpt>
      <trkpt lat="46.23053" lon="6.7745">
        <ele>1716</ele>
        <time>2016-07-03T15:28:58.000Z</time>
      </trkpt>
      <trkpt lat="46.23045" lon="6.77443">
        <ele>1714</ele>
        <time>2016-07-03T15:29:09.000Z</time>
      </trkpt>
      <trkpt lat="46.23043" lon="6.77443">
        <ele>1714</ele>
        <time>2016-07-03T15:29:10.000Z</time>
      </trkpt>
      <trkpt lat="46.23036" lon="6.77438">
        <ele>1709</ele>
        <time>2016-07-03T15:29:16.000Z</time>
      </trkpt>
      <trkpt lat="46.23034" lon="6.77438">
        <ele>1710</ele>
        <time>2016-07-03T15:29:17.000Z</time>
      </trkpt>
      <trkpt lat="46.23026" lon="6.77432">
        <ele>1713</ele>
        <time>2016-07-03T15:29:25.000Z</time>
      </trkpt>
      <trkpt lat="46.23026" lon="6.77431">
        <ele>1714</ele>
        <time>2016-07-03T15:29:26.000Z</time>
      </trkpt>
      <trkpt lat="46.23019" lon="6.77425">
        <ele>1713</ele>
        <time>2016-07-03T15:29:33.000Z</time>
      </trkpt>
      <trkpt lat="46.23017" lon="6.77423">
        <ele>1712</ele>
        <time>2016-07-03T15:29:34.000Z</time>
      </trkpt>
      <trkpt lat="46.2301" lon="6.77417">
        <ele>1710</ele>
        <time>2016-07-03T15:29:39.000Z</time>
      </trkpt>
      <trkpt lat="46.23009" lon="6.77415">
        <ele>1711</ele>
        <time>2016-07-03T15:29:40.000Z</time>
      </trkpt>
      <trkpt lat="46.23002" lon="6.77407">
        <ele>1713</ele>
        <time>2016-07-03T15:29:48.000Z</time>
      </trkpt>
      <trkpt lat="46.23002" lon="6.77406">
        <ele>1714</ele>
        <time>2016-07-03T15:29:49.000Z</time>
      </trkpt>
      <trkpt lat="46.22994" lon="6.77401">
        <ele>1711</ele>
        <time>2016-07-03T15:29:55.000Z</time>
      </trkpt>
      <trkpt lat="46.22994" lon="6.774">
        <ele>1710</ele>
        <time>2016-07-03T15:29:56.000Z</time>
      </trkpt>
      <trkpt lat="46.22987" lon="6.77393">
        <ele>1708</ele>
        <time>2016-07-03T15:30:03.000Z</time>
      </trkpt>
      <trkpt lat="46.22987" lon="6.77391">
        <ele>1709</ele>
        <time>2016-07-03T15:30:04.000Z</time>
      </trkpt>
      <trkpt lat="46.22982" lon="6.77381">
        <ele>1708</ele>
        <time>2016-07-03T15:30:11.000Z</time>
      </trkpt>
      <trkpt lat="46.22981" lon="6.7738">
        <ele>1708</ele>
        <time>2016-07-03T15:30:12.000Z</time>
      </trkpt>
      <trkpt lat="46.22977" lon="6.77369">
        <ele>1709</ele>
        <time>2016-07-03T15:30:19.000Z</time>
      </trkpt>
      <trkpt lat="46.22975" lon="6.77367">
        <ele>1707</ele>
        <time>2016-07-03T15:30:20.000Z</time>
      </trkpt>
      <trkpt lat="46.22968" lon="6.77361">
        <ele>1717</ele>
        <time>2016-07-03T15:30:34.000Z</time>
      </trkpt>
      <trkpt lat="46.22967" lon="6.7736">
        <ele>1717</ele>
        <time>2016-07-03T15:30:35.000Z</time>
      </trkpt>
      <trkpt lat="46.22963" lon="6.77359">
        <ele>1716</ele>
        <time>2016-07-03T15:31:04.000Z</time>
      </trkpt>
      <trkpt lat="46.22962" lon="6.77359">
        <ele>1716</ele>
        <time>2016-07-03T15:31:05.000Z</time>
      </trkpt>
      <trkpt lat="46.22962" lon="6.77359">
        <ele>1716</ele>
        <time>2016-07-03T15:31:06.000Z</time>
      </trkpt>
      <trkpt lat="46.22962" lon="6.77359">
        <ele>1716</ele>
        <time>2016-07-03T15:31:07.000Z</time>
      </trkpt>
      <trkpt lat="46.22953" lon="6.77356">
        <ele>1714</ele>
        <time>2016-07-03T15:31:30.000Z</time>
      </trkpt>
      <trkpt lat="46.22953" lon="6.77356">
        <ele>1714</ele>
        <time>2016-07-03T15:31:31.000Z</time>
      </trkpt>
      <trkpt lat="46.22952" lon="6.77355">
        <ele>1713</ele>
        <time>2016-07-03T15:31:32.000Z</time>
      </trkpt>
      <trkpt lat="46.22952" lon="6.77355">
        <ele>1713</ele>
        <time>2016-07-03T15:31:33.000Z</time>
      </trkpt>
      <trkpt lat="46.22949" lon="6.77354">
        <ele>1710</ele>
        <time>2016-07-03T15:31:34.000Z</time>
      </trkpt>
      <trkpt lat="46.22944" lon="6.77346">
        <ele>1713</ele>
        <time>2016-07-03T15:31:43.000Z</time>
      </trkpt>
      <trkpt lat="46.22943" lon="6.77344">
        <ele>1713</ele>
        <time>2016-07-03T15:31:44.000Z</time>
      </trkpt>
      <trkpt lat="46.22938" lon="6.77336">
        <ele>1717</ele>
        <time>2016-07-03T15:31:53.000Z</time>
      </trkpt>
      <trkpt lat="46.22936" lon="6.77333">
        <ele>1716</ele>
        <time>2016-07-03T15:31:54.000Z</time>
      </trkpt>
      <trkpt lat="46.22931" lon="6.77323">
        <ele>1716</ele>
        <time>2016-07-03T15:32:01.000Z</time>
      </trkpt>
      <trkpt lat="46.2293" lon="6.77322">
        <ele>1716</ele>
        <time>2016-07-03T15:32:02.000Z</time>
      </trkpt>
      <trkpt lat="46.22924" lon="6.77314">
        <ele>1714</ele>
        <time>2016-07-03T15:32:14.000Z</time>
      </trkpt>
      <trkpt lat="46.22923" lon="6.77313">
        <ele>1714</ele>
        <time>2016-07-03T15:32:15.000Z</time>
      </trkpt>
      <trkpt lat="46.22917" lon="6.77305">
        <ele>1708</ele>
        <time>2016-07-03T15:32:25.000Z</time>
      </trkpt>
      <trkpt lat="46.22917" lon="6.77304">
        <ele>1708</ele>
        <time>2016-07-03T15:32:26.000Z</time>
      </trkpt>
      <trkpt lat="46.22912" lon="6.77293">
        <ele>1710</ele>
        <time>2016-07-03T15:32:39.000Z</time>
      </trkpt>
      <trkpt lat="46.22911" lon="6.77292">
        <ele>1710</ele>
        <time>2016-07-03T15:32:40.000Z</time>
      </trkpt>
      <trkpt lat="46.22904" lon="6.77288">
        <ele>1711</ele>
        <time>2016-07-03T15:32:56.000Z</time>
      </trkpt>
      <trkpt lat="46.22902" lon="6.77288">
        <ele>1712</ele>
        <time>2016-07-03T15:32:57.000Z</time>
      </trkpt>
      <trkpt lat="46.22893" lon="6.77287">
        <ele>1710</ele>
        <time>2016-07-03T15:33:07.000Z</time>
      </trkpt>
      <trkpt lat="46.22892" lon="6.77286">
        <ele>1708</ele>
        <time>2016-07-03T15:33:08.000Z</time>
      </trkpt>
      <trkpt lat="46.22884" lon="6.77286">
        <ele>1714</ele>
        <time>2016-07-03T15:33:20.000Z</time>
      </trkpt>
      <trkpt lat="46.22883" lon="6.77286">
        <ele>1714</ele>
        <time>2016-07-03T15:33:21.000Z</time>
      </trkpt>
      <trkpt lat="46.22883" lon="6.77285">
        <ele>1714</ele>
        <time>2016-07-03T15:33:22.000Z</time>
      </trkpt>
      <trkpt lat="46.22882" lon="6.77285">
        <ele>1715</ele>
        <time>2016-07-03T15:33:23.000Z</time>
      </trkpt>
      <trkpt lat="46.22883" lon="6.77285">
        <ele>1715</ele>
        <time>2016-07-03T15:33:24.000Z</time>
      </trkpt>
      <trkpt lat="46.22874" lon="6.77282">
        <ele>1713</ele>
        <time>2016-07-03T15:33:40.000Z</time>
      </trkpt>
      <trkpt lat="46.22874" lon="6.77282">
        <ele>1713</ele>
        <time>2016-07-03T15:33:41.000Z</time>
      </trkpt>
      <trkpt lat="46.22865" lon="6.7728">
        <ele>1709</ele>
        <time>2016-07-03T15:33:48.000Z</time>
      </trkpt>
      <trkpt lat="46.22864" lon="6.77281">
        <ele>1710</ele>
        <time>2016-07-03T15:33:49.000Z</time>
      </trkpt>
      <trkpt lat="46.22855" lon="6.7728">
        <ele>1709</ele>
        <time>2016-07-03T15:34:00.000Z</time>
      </trkpt>
      <trkpt lat="46.22854" lon="6.77279">
        <ele>1708</ele>
        <time>2016-07-03T15:34:01.000Z</time>
      </trkpt>
      <trkpt lat="46.22845" lon="6.77277">
        <ele>1708</ele>
        <time>2016-07-03T15:34:08.000Z</time>
      </trkpt>
      <trkpt lat="46.22844" lon="6.77278">
        <ele>1707</ele>
        <time>2016-07-03T15:34:09.000Z</time>
      </trkpt>
      <trkpt lat="46.22836" lon="6.77281">
        <ele>1709</ele>
        <time>2016-07-03T15:34:16.000Z</time>
      </trkpt>
      <trkpt lat="46.22834" lon="6.77282">
        <ele>1708</ele>
        <time>2016-07-03T15:34:17.000Z</time>
      </trkpt>
      <trkpt lat="46.22826" lon="6.77279">
        <ele>1705</ele>
        <time>2016-07-03T15:34:24.000Z</time>
      </trkpt>
      <trkpt lat="46.22825" lon="6.77278">
        <ele>1705</ele>
        <time>2016-07-03T15:34:25.000Z</time>
      </trkpt>
      <trkpt lat="46.22819" lon="6.77272">
        <ele>1712</ele>
        <time>2016-07-03T15:34:33.000Z</time>
      </trkpt>
      <trkpt lat="46.22817" lon="6.77272">
        <ele>1712</ele>
        <time>2016-07-03T15:34:34.000Z</time>
      </trkpt>
      <trkpt lat="46.22809" lon="6.7727">
        <ele>1716</ele>
        <time>2016-07-03T15:34:43.000Z</time>
      </trkpt>
      <trkpt lat="46.22807" lon="6.77269">
        <ele>1716</ele>
        <time>2016-07-03T15:34:44.000Z</time>
      </trkpt>
      <trkpt lat="46.22803" lon="6.77258">
        <ele>1718</ele>
        <time>2016-07-03T15:34:56.000Z</time>
      </trkpt>
      <trkpt lat="46.22802" lon="6.77258">
        <ele>1718</ele>
        <time>2016-07-03T15:34:57.000Z</time>
      </trkpt>
      <trkpt lat="46.22797" lon="6.77249">
        <ele>1722</ele>
        <time>2016-07-03T15:35:09.000Z</time>
      </trkpt>
      <trkpt lat="46.22796" lon="6.77247">
        <ele>1721</ele>
        <time>2016-07-03T15:35:10.000Z</time>
      </trkpt>
      <trkpt lat="46.22793" lon="6.77259">
        <ele>1724</ele>
        <time>2016-07-03T15:35:27.000Z</time>
      </trkpt>
      <trkpt lat="46.22793" lon="6.7726">
        <ele>1722</ele>
        <time>2016-07-03T15:35:28.000Z</time>
      </trkpt>
      <trkpt lat="46.22788" lon="6.7727">
        <ele>1717</ele>
        <time>2016-07-03T15:35:49.000Z</time>
      </trkpt>
      <trkpt lat="46.22788" lon="6.77271">
        <ele>1717</ele>
        <time>2016-07-03T15:35:50.000Z</time>
      </trkpt>
      <trkpt lat="46.22783" lon="6.77281">
        <ele>1717</ele>
        <time>2016-07-03T15:35:59.000Z</time>
      </trkpt>
      <trkpt lat="46.22783" lon="6.77282">
        <ele>1718</ele>
        <time>2016-07-03T15:36:00.000Z</time>
      </trkpt>
      <trkpt lat="46.22775" lon="6.77285">
        <ele>1725</ele>
        <time>2016-07-03T15:36:13.000Z</time>
      </trkpt>
      <trkpt lat="46.22774" lon="6.77284">
        <ele>1726</ele>
        <time>2016-07-03T15:36:14.000Z</time>
      </trkpt>
      <trkpt lat="46.22767" lon="6.77288">
        <ele>1730</ele>
        <time>2016-07-03T15:36:26.000Z</time>
      </trkpt>
      <trkpt lat="46.22765" lon="6.77287">
        <ele>1730</ele>
        <time>2016-07-03T15:36:27.000Z</time>
      </trkpt>
      <trkpt lat="46.22757" lon="6.77292">
        <ele>1729</ele>
        <time>2016-07-03T15:36:36.000Z</time>
      </trkpt>
      <trkpt lat="46.22756" lon="6.77292">
        <ele>1728</ele>
        <time>2016-07-03T15:36:37.000Z</time>
      </trkpt>
      <trkpt lat="46.22748" lon="6.77291">
        <ele>1730</ele>
        <time>2016-07-03T15:36:55.000Z</time>
      </trkpt>
      <trkpt lat="46.22746" lon="6.77292">
        <ele>1731</ele>
        <time>2016-07-03T15:36:56.000Z</time>
      </trkpt>
      <trkpt lat="46.22738" lon="6.77297">
        <ele>1731</ele>
        <time>2016-07-03T15:37:05.000Z</time>
      </trkpt>
      <trkpt lat="46.22737" lon="6.77296">
        <ele>1732</ele>
        <time>2016-07-03T15:37:06.000Z</time>
      </trkpt>
      <trkpt lat="46.22729" lon="6.77301">
        <ele>1735</ele>
        <time>2016-07-03T15:37:34.000Z</time>
      </trkpt>
      <trkpt lat="46.22729" lon="6.77301">
        <ele>1734</ele>
        <time>2016-07-03T15:37:35.000Z</time>
      </trkpt>
      <trkpt lat="46.2272" lon="6.77303">
        <ele>1733</ele>
        <time>2016-07-03T15:37:54.000Z</time>
      </trkpt>
      <trkpt lat="46.22718" lon="6.77302">
        <ele>1733</ele>
        <time>2016-07-03T15:37:55.000Z</time>
      </trkpt>
      <trkpt lat="46.2271" lon="6.77296">
        <ele>1735</ele>
        <time>2016-07-03T15:38:07.000Z</time>
      </trkpt>
      <trkpt lat="46.2271" lon="6.77296">
        <ele>1734</ele>
        <time>2016-07-03T15:38:08.000Z</time>
      </trkpt>
      <trkpt lat="46.22701" lon="6.77299">
        <ele>1734</ele>
        <time>2016-07-03T15:38:23.000Z</time>
      </trkpt>
      <trkpt lat="46.22701" lon="6.77299">
        <ele>1734</ele>
        <time>2016-07-03T15:38:24.000Z</time>
      </trkpt>
      <trkpt lat="46.22698" lon="6.77311">
        <ele>1736</ele>
        <time>2016-07-03T15:38:34.000Z</time>
      </trkpt>
      <trkpt lat="46.22697" lon="6.77312">
        <ele>1736</ele>
        <time>2016-07-03T15:38:35.000Z</time>
      </trkpt>
      <trkpt lat="46.22689" lon="6.77312">
        <ele>1733</ele>
        <time>2016-07-03T15:38:42.000Z</time>
      </trkpt>
      <trkpt lat="46.22687" lon="6.77312">
        <ele>1732</ele>
        <time>2016-07-03T15:38:43.000Z</time>
      </trkpt>
      <trkpt lat="46.22679" lon="6.77315">
        <ele>1732</ele>
        <time>2016-07-03T15:38:54.000Z</time>
      </trkpt>
      <trkpt lat="46.22678" lon="6.77318">
        <ele>1731</ele>
        <time>2016-07-03T15:38:55.000Z</time>
      </trkpt>
      <trkpt lat="46.22674" lon="6.77328">
        <ele>1732</ele>
        <time>2016-07-03T15:39:06.000Z</time>
      </trkpt>
      <trkpt lat="46.22671" lon="6.77328">
        <ele>1730</ele>
        <time>2016-07-03T15:39:07.000Z</time>
      </trkpt>
      <trkpt lat="46.22662" lon="6.77327">
        <ele>1739</ele>
        <time>2016-07-03T15:39:25.000Z</time>
      </trkpt>
      <trkpt lat="46.22662" lon="6.77328">
        <ele>1740</ele>
        <time>2016-07-03T15:39:26.000Z</time>
      </trkpt>
      <trkpt lat="46.22662" lon="6.77329">
        <ele>1741</ele>
        <time>2016-07-03T15:39:27.000Z</time>
      </trkpt>
      <trkpt lat="46.22665" lon="6.77329">
        <ele>1741</ele>
        <time>2016-07-03T15:39:49.000Z</time>
      </trkpt>
      <trkpt lat="46.22665" lon="6.77329">
        <ele>1741</ele>
        <time>2016-07-03T15:39:50.000Z</time>
      </trkpt>
      <trkpt lat="46.22657" lon="6.77326">
        <ele>1732</ele>
        <time>2016-07-03T15:40:25.000Z</time>
      </trkpt>
      <trkpt lat="46.22657" lon="6.77326">
        <ele>1732</ele>
        <time>2016-07-03T15:40:26.000Z</time>
      </trkpt>
      <trkpt lat="46.22656" lon="6.77325">
        <ele>1732</ele>
        <time>2016-07-03T15:40:32.000Z</time>
      </trkpt>
      <trkpt lat="46.22657" lon="6.77325">
        <ele>1732</ele>
        <time>2016-07-03T15:40:33.000Z</time>
      </trkpt>
      <trkpt lat="46.22657" lon="6.77324">
        <ele>1731</ele>
        <time>2016-07-03T15:40:34.000Z</time>
      </trkpt>
      <trkpt lat="46.22658" lon="6.77328">
        <ele>1730</ele>
        <time>2016-07-03T15:40:55.000Z</time>
      </trkpt>
      <trkpt lat="46.22658" lon="6.77328">
        <ele>1730</ele>
        <time>2016-07-03T15:40:56.000Z</time>
      </trkpt>
      <trkpt lat="46.22658" lon="6.77327">
        <ele>1729</ele>
        <time>2016-07-03T15:40:57.000Z</time>
      </trkpt>
      <trkpt lat="46.22657" lon="6.77327">
        <ele>1727</ele>
        <time>2016-07-03T15:41:08.000Z</time>
      </trkpt>
      <trkpt lat="46.22657" lon="6.77327">
        <ele>1727</ele>
        <time>2016-07-03T15:41:09.000Z</time>
      </trkpt>
      <trkpt lat="46.22659" lon="6.77327">
        <ele>1731</ele>
        <time>2016-07-03T15:41:27.000Z</time>
      </trkpt>
      <trkpt lat="46.22659" lon="6.77326">
        <ele>1731</ele>
        <time>2016-07-03T15:41:28.000Z</time>
      </trkpt>
      <trkpt lat="46.22659" lon="6.77328">
        <ele>1730</ele>
        <time>2016-07-03T15:42:10.000Z</time>
      </trkpt>
      <trkpt lat="46.22659" lon="6.77328">
        <ele>1730</ele>
        <time>2016-07-03T15:42:11.000Z</time>
      </trkpt>
      <trkpt lat="46.22659" lon="6.77328">
        <ele>1730</ele>
        <time>2016-07-03T15:42:13.000Z</time>
      </trkpt>
      <trkpt lat="46.22659" lon="6.77328">
        <ele>1731</ele>
        <time>2016-07-03T15:42:14.000Z</time>
      </trkpt>
      <trkpt lat="46.22658" lon="6.77329">
        <ele>1730</ele>
        <time>2016-07-03T15:42:16.000Z</time>
      </trkpt>
      <trkpt lat="46.22659" lon="6.77328">
        <ele>1731</ele>
        <time>2016-07-03T15:42:17.000Z</time>
      </trkpt>
      <trkpt lat="46.2266" lon="6.77324">
        <ele>1736</ele>
        <time>2016-07-03T15:42:31.000Z</time>
      </trkpt>
      <trkpt lat="46.2266" lon="6.77324">
        <ele>1736</ele>
        <time>2016-07-03T15:42:32.000Z</time>
      </trkpt>
      <trkpt lat="46.2266" lon="6.77325">
        <ele>1738</ele>
        <time>2016-07-03T15:42:42.000Z</time>
      </trkpt>
      <trkpt lat="46.2266" lon="6.77324">
        <ele>1738</ele>
        <time>2016-07-03T15:42:43.000Z</time>
      </trkpt>
      <trkpt lat="46.22657" lon="6.77327">
        <ele>1733</ele>
        <time>2016-07-03T15:48:15.056Z</time>
      </trkpt>
    </trkseg>
  </trk>
</gpx>